<?xml version="1.0" encoding="utf-8"?>
<gpx xmlns:xsi="http://www.w3.org/2001/XMLSchema-instance" xmlns:xsd="http://www.w3.org/2001/XMLSchema" version="1.1" creator="Shapelink.com" xmlns="http://www.topografix.com/GPX/1/1" xmlns:gpxtpx="http://www.garmin.com/xmlschemas/TrackPointExtension/v1">
  <metadata>
    <name>Längdskidåkning - Klassisk 10.41 km, 2011-01-21</name>
    <desc></desc>
    <author><name>Alexander Engvall</name></author> 
    <time>2011-01-21T20:16:41Z</time>
  </metadata>
  <trk>
    <name>Längdskidåkning - Klassisk 10.41 km, 2011-01-21</name>
    <trkseg>
      <trkpt lat="59.4883997" lon="17.8769662">
        <ele>10.2312</ele>
        <time>2011-01-21T20:16:41Z</time>
      </trkpt>
      <trkpt lat="59.4883666" lon="17.8772181">
        <ele>10.2312</ele>
        <time>2011-01-21T20:16:46Z</time>
      </trkpt>
      <trkpt lat="59.4883509" lon="17.8773781">
        <ele>10.2312</ele>
        <time>2011-01-21T20:16:48Z</time>
      </trkpt>
      <trkpt lat="59.4883439" lon="17.8778412">
        <ele>9.2699</ele>
        <time>2011-01-21T20:16:53Z</time>
      </trkpt>
      <trkpt lat="59.4883735" lon="17.878026">
        <ele>8.78918</ele>
        <time>2011-01-21T20:16:55Z</time>
      </trkpt>
      <trkpt lat="59.4884191" lon="17.8781951">
        <ele>7.82788</ele>
        <time>2011-01-21T20:16:57Z</time>
      </trkpt>
      <trkpt lat="59.4885563" lon="17.8784333">
        <ele>6.86646</ele>
        <time>2011-01-21T20:17:01Z</time>
      </trkpt>
      <trkpt lat="59.4887514" lon="17.8786145">
        <ele>5.42456</ele>
        <time>2011-01-21T20:17:06Z</time>
      </trkpt>
      <trkpt lat="59.4888203" lon="17.878682">
        <ele>5.90527</ele>
        <time>2011-01-21T20:17:08Z</time>
      </trkpt>
      <trkpt lat="59.4889055" lon="17.8789602">
        <ele>5.90527</ele>
        <time>2011-01-21T20:17:13Z</time>
      </trkpt>
      <trkpt lat="59.4889034" lon="17.8790207">
        <ele>6.38586</ele>
        <time>2011-01-21T20:17:14Z</time>
      </trkpt>
      <trkpt lat="59.4888339" lon="17.8792533">
        <ele>6.38586</ele>
        <time>2011-01-21T20:17:19Z</time>
      </trkpt>
      <trkpt lat="59.4886798" lon="17.8792947">
        <ele>7.82788</ele>
        <time>2011-01-21T20:17:24Z</time>
      </trkpt>
      <trkpt lat="59.4885795" lon="17.8793477">
        <ele>8.30859</ele>
        <time>2011-01-21T20:17:27Z</time>
      </trkpt>
      <trkpt lat="59.4884361" lon="17.8794712">
        <ele>8.78918</ele>
        <time>2011-01-21T20:17:31Z</time>
      </trkpt>
      <trkpt lat="59.4883129" lon="17.879655">
        <ele>8.78918</ele>
        <time>2011-01-21T20:17:35Z</time>
      </trkpt>
      <trkpt lat="59.4882128" lon="17.8799044">
        <ele>8.30859</ele>
        <time>2011-01-21T20:17:39Z</time>
      </trkpt>
      <trkpt lat="59.4881543" lon="17.8801273">
        <ele>8.30859</ele>
        <time>2011-01-21T20:17:42Z</time>
      </trkpt>
      <trkpt lat="59.488092" lon="17.8803638">
        <ele>9.2699</ele>
        <time>2011-01-21T20:17:45Z</time>
      </trkpt>
      <trkpt lat="59.4880554" lon="17.8804776">
        <ele>9.2699</ele>
        <time>2011-01-21T20:17:47Z</time>
      </trkpt>
      <trkpt lat="59.4879429" lon="17.8807488">
        <ele>10.2312</ele>
        <time>2011-01-21T20:17:52Z</time>
      </trkpt>
      <trkpt lat="59.4878728" lon="17.8809687">
        <ele>10.7118</ele>
        <time>2011-01-21T20:17:56Z</time>
      </trkpt>
      <trkpt lat="59.4877787" lon="17.8812326">
        <ele>11.1925</ele>
        <time>2011-01-21T20:18:01Z</time>
      </trkpt>
      <trkpt lat="59.4876466" lon="17.8813781">
        <ele>11.1925</ele>
        <time>2011-01-21T20:18:05Z</time>
      </trkpt>
      <trkpt lat="59.4875088" lon="17.8815004">
        <ele>10.7118</ele>
        <time>2011-01-21T20:18:09Z</time>
      </trkpt>
      <trkpt lat="59.487376" lon="17.8815349">
        <ele>10.2312</ele>
        <time>2011-01-21T20:18:12Z</time>
      </trkpt>
      <trkpt lat="59.487197" lon="17.8815049">
        <ele>11.1925</ele>
        <time>2011-01-21T20:18:16Z</time>
      </trkpt>
      <trkpt lat="59.4870234" lon="17.881365">
        <ele>11.1925</ele>
        <time>2011-01-21T20:18:21Z</time>
      </trkpt>
      <trkpt lat="59.4869644" lon="17.8812997">
        <ele>10.7118</ele>
        <time>2011-01-21T20:18:23Z</time>
      </trkpt>
      <trkpt lat="59.486811" lon="17.8811338">
        <ele>11.1925</ele>
        <time>2011-01-21T20:18:28Z</time>
      </trkpt>
      <trkpt lat="59.4867067" lon="17.8810035">
        <ele>11.6732</ele>
        <time>2011-01-21T20:18:32Z</time>
      </trkpt>
      <trkpt lat="59.4865917" lon="17.8808874">
        <ele>12.6344</ele>
        <time>2011-01-21T20:18:36Z</time>
      </trkpt>
      <trkpt lat="59.486486" lon="17.8807779">
        <ele>12.6344</ele>
        <time>2011-01-21T20:18:40Z</time>
      </trkpt>
      <trkpt lat="59.486381" lon="17.8807031">
        <ele>13.1151</ele>
        <time>2011-01-21T20:18:44Z</time>
      </trkpt>
      <trkpt lat="59.4862341" lon="17.880659">
        <ele>13.5958</ele>
        <time>2011-01-21T20:18:49Z</time>
      </trkpt>
      <trkpt lat="59.4861495" lon="17.880671">
        <ele>13.5958</ele>
        <time>2011-01-21T20:18:52Z</time>
      </trkpt>
      <trkpt lat="59.4860515" lon="17.8807177">
        <ele>13.1151</ele>
        <time>2011-01-21T20:18:56Z</time>
      </trkpt>
      <trkpt lat="59.4859299" lon="17.8808695">
        <ele>13.5958</ele>
        <time>2011-01-21T20:19:02Z</time>
      </trkpt>
      <trkpt lat="59.4858422" lon="17.8810978">
        <ele>15.0377</ele>
        <time>2011-01-21T20:19:07Z</time>
      </trkpt>
      <trkpt lat="59.4858041" lon="17.88125">
        <ele>15.999</ele>
        <time>2011-01-21T20:19:11Z</time>
      </trkpt>
      <trkpt lat="59.4857523" lon="17.8815914">
        <ele>15.5184</ele>
        <time>2011-01-21T20:19:15Z</time>
      </trkpt>
      <trkpt lat="59.4857332" lon="17.8819941">
        <ele>14.0764</ele>
        <time>2011-01-21T20:19:20Z</time>
      </trkpt>
      <trkpt lat="59.485738" lon="17.8820793">
        <ele>14.0764</ele>
        <time>2011-01-21T20:19:21Z</time>
      </trkpt>
      <trkpt lat="59.4857389" lon="17.8824827">
        <ele>13.5958</ele>
        <time>2011-01-21T20:19:26Z</time>
      </trkpt>
      <trkpt lat="59.4856672" lon="17.8827966">
        <ele>14.0764</ele>
        <time>2011-01-21T20:19:30Z</time>
      </trkpt>
      <trkpt lat="59.4855975" lon="17.8830777">
        <ele>14.0764</ele>
        <time>2011-01-21T20:19:34Z</time>
      </trkpt>
      <trkpt lat="59.485561" lon="17.883227">
        <ele>13.1151</ele>
        <time>2011-01-21T20:19:36Z</time>
      </trkpt>
      <trkpt lat="59.4855278" lon="17.8834686">
        <ele>11.6732</ele>
        <time>2011-01-21T20:19:39Z</time>
      </trkpt>
      <trkpt lat="59.4855067" lon="17.8837328">
        <ele>10.7118</ele>
        <time>2011-01-21T20:19:42Z</time>
      </trkpt>
      <trkpt lat="59.4854394" lon="17.8841532">
        <ele>7.34717</ele>
        <time>2011-01-21T20:19:47Z</time>
      </trkpt>
      <trkpt lat="59.4853324" lon="17.8842126">
        <ele>5.90527</ele>
        <time>2011-01-21T20:19:49Z</time>
      </trkpt>
      <trkpt lat="59.4851768" lon="17.8842567">
        <ele>4.46326</ele>
        <time>2011-01-21T20:19:52Z</time>
      </trkpt>
      <trkpt lat="59.4849818" lon="17.8844155">
        <ele>3.98267</ele>
        <time>2011-01-21T20:19:56Z</time>
      </trkpt>
      <trkpt lat="59.4848958" lon="17.8845163">
        <ele>3.02124</ele>
        <time>2011-01-21T20:19:58Z</time>
      </trkpt>
      <trkpt lat="59.4847017" lon="17.8846878">
        <ele>2.06006</ele>
        <time>2011-01-21T20:20:03Z</time>
      </trkpt>
      <trkpt lat="59.48467" lon="17.8847044">
        <ele>2.54065</ele>
        <time>2011-01-21T20:20:04Z</time>
      </trkpt>
      <trkpt lat="59.4844612" lon="17.8847514">
        <ele>4.46326</ele>
        <time>2011-01-21T20:20:10Z</time>
      </trkpt>
      <trkpt lat="59.4843878" lon="17.8847569">
        <ele>4.94385</ele>
        <time>2011-01-21T20:20:12Z</time>
      </trkpt>
      <trkpt lat="59.4841707" lon="17.8848006">
        <ele>6.38586</ele>
        <time>2011-01-21T20:20:18Z</time>
      </trkpt>
      <trkpt lat="59.4840242" lon="17.8849094">
        <ele>6.38586</ele>
        <time>2011-01-21T20:20:22Z</time>
      </trkpt>
      <trkpt lat="59.4838831" lon="17.8851004">
        <ele>5.90527</ele>
        <time>2011-01-21T20:20:26Z</time>
      </trkpt>
      <trkpt lat="59.4838117" lon="17.8852275">
        <ele>5.42456</ele>
        <time>2011-01-21T20:20:28Z</time>
      </trkpt>
      <trkpt lat="59.4836196" lon="17.8856352">
        <ele>3.02124</ele>
        <time>2011-01-21T20:20:33Z</time>
      </trkpt>
      <trkpt lat="59.4834942" lon="17.8859189">
        <ele>1.57935</ele>
        <time>2011-01-21T20:20:36Z</time>
      </trkpt>
      <trkpt lat="59.4834554" lon="17.8860102">
        <ele>1.57935</ele>
        <time>2011-01-21T20:20:37Z</time>
      </trkpt>
      <trkpt lat="59.4832666" lon="17.8863791">
        <ele>2.06006</ele>
        <time>2011-01-21T20:20:42Z</time>
      </trkpt>
      <trkpt lat="59.4831193" lon="17.8867877">
        <ele>0.137451</ele>
        <time>2011-01-21T20:20:48Z</time>
      </trkpt>
      <trkpt lat="59.4830203" lon="17.8870201">
        <ele>0</ele>
        <time>2011-01-21T20:20:52Z</time>
      </trkpt>
      <trkpt lat="59.4828271" lon="17.8871691">
        <ele>0</ele>
        <time>2011-01-21T20:20:57Z</time>
      </trkpt>
      <trkpt lat="59.4827197" lon="17.8870994">
        <ele>0</ele>
        <time>2011-01-21T20:21:00Z</time>
      </trkpt>
      <trkpt lat="59.4826623" lon="17.8869427">
        <ele>0</ele>
        <time>2011-01-21T20:21:03Z</time>
      </trkpt>
      <trkpt lat="59.482638" lon="17.8867513">
        <ele>0.137451</ele>
        <time>2011-01-21T20:21:06Z</time>
      </trkpt>
      <trkpt lat="59.4826334" lon="17.8866738">
        <ele>0.618042</ele>
        <time>2011-01-21T20:21:07Z</time>
      </trkpt>
      <trkpt lat="59.4826456" lon="17.8863308">
        <ele>1.57935</ele>
        <time>2011-01-21T20:21:12Z</time>
      </trkpt>
      <trkpt lat="59.4826606" lon="17.8860935">
        <ele>3.50195</ele>
        <time>2011-01-21T20:21:16Z</time>
      </trkpt>
      <trkpt lat="59.4826612" lon="17.885846">
        <ele>4.94385</ele>
        <time>2011-01-21T20:21:20Z</time>
      </trkpt>
      <trkpt lat="59.4826431" lon="17.8855863">
        <ele>5.42456</ele>
        <time>2011-01-21T20:21:24Z</time>
      </trkpt>
      <trkpt lat="59.4826296" lon="17.8852889">
        <ele>6.86646</ele>
        <time>2011-01-21T20:21:29Z</time>
      </trkpt>
      <trkpt lat="59.4826258" lon="17.8849964">
        <ele>8.30859</ele>
        <time>2011-01-21T20:21:34Z</time>
      </trkpt>
      <trkpt lat="59.4826151" lon="17.8847652">
        <ele>9.2699</ele>
        <time>2011-01-21T20:21:38Z</time>
      </trkpt>
      <trkpt lat="59.4825901" lon="17.8845448">
        <ele>9.2699</ele>
        <time>2011-01-21T20:21:42Z</time>
      </trkpt>
      <trkpt lat="59.4825722" lon="17.884252">
        <ele>10.7118</ele>
        <time>2011-01-21T20:21:49Z</time>
      </trkpt>
      <trkpt lat="59.482583" lon="17.8840286">
        <ele>10.7118</ele>
        <time>2011-01-21T20:21:55Z</time>
      </trkpt>
      <trkpt lat="59.4826208" lon="17.8838636">
        <ele>10.7118</ele>
        <time>2011-01-21T20:22:00Z</time>
      </trkpt>
      <trkpt lat="59.4827017" lon="17.8836682">
        <ele>11.1925</ele>
        <time>2011-01-21T20:22:06Z</time>
      </trkpt>
      <trkpt lat="59.4827745" lon="17.8834816">
        <ele>12.6344</ele>
        <time>2011-01-21T20:22:12Z</time>
      </trkpt>
      <trkpt lat="59.4828016" lon="17.8832454">
        <ele>12.6344</ele>
        <time>2011-01-21T20:22:16Z</time>
      </trkpt>
      <trkpt lat="59.4828083" lon="17.8830477">
        <ele>13.1151</ele>
        <time>2011-01-21T20:22:20Z</time>
      </trkpt>
      <trkpt lat="59.4828302" lon="17.882872">
        <ele>14.557</ele>
        <time>2011-01-21T20:22:25Z</time>
      </trkpt>
      <trkpt lat="59.4828753" lon="17.8826954">
        <ele>14.0764</ele>
        <time>2011-01-21T20:22:30Z</time>
      </trkpt>
      <trkpt lat="59.4829121" lon="17.8825321">
        <ele>14.557</ele>
        <time>2011-01-21T20:22:35Z</time>
      </trkpt>
      <trkpt lat="59.4829147" lon="17.8823936">
        <ele>15.5184</ele>
        <time>2011-01-21T20:22:39Z</time>
      </trkpt>
      <trkpt lat="59.4829115" lon="17.8823572">
        <ele>15.5184</ele>
        <time>2011-01-21T20:22:40Z</time>
      </trkpt>
      <trkpt lat="59.4828444" lon="17.8822095">
        <ele>17.4412</ele>
        <time>2011-01-21T20:22:45Z</time>
      </trkpt>
      <trkpt lat="59.4827913" lon="17.8820546">
        <ele>17.9218</ele>
        <time>2011-01-21T20:22:51Z</time>
      </trkpt>
      <trkpt lat="59.4827508" lon="17.882148">
        <ele>17.4412</ele>
        <time>2011-01-21T20:22:54Z</time>
      </trkpt>
      <trkpt lat="59.4827303" lon="17.8826017">
        <ele>14.557</ele>
        <time>2011-01-21T20:23:00Z</time>
      </trkpt>
      <trkpt lat="59.482684" lon="17.8830297">
        <ele>12.1538</ele>
        <time>2011-01-21T20:23:04Z</time>
      </trkpt>
      <trkpt lat="59.4825562" lon="17.8838194">
        <ele>9.75061</ele>
        <time>2011-01-21T20:23:10Z</time>
      </trkpt>
      <trkpt lat="59.4823475" lon="17.8843219">
        <ele>6.38586</ele>
        <time>2011-01-21T20:23:14Z</time>
      </trkpt>
      <trkpt lat="59.4822262" lon="17.8845658">
        <ele>5.90527</ele>
        <time>2011-01-21T20:23:16Z</time>
      </trkpt>
      <trkpt lat="59.4820478" lon="17.8852684">
        <ele>3.98267</ele>
        <time>2011-01-21T20:23:21Z</time>
      </trkpt>
      <trkpt lat="59.4820277" lon="17.8854022">
        <ele>4.46326</ele>
        <time>2011-01-21T20:23:22Z</time>
      </trkpt>
      <trkpt lat="59.4819906" lon="17.8858589">
        <ele>3.98267</ele>
        <time>2011-01-21T20:23:26Z</time>
      </trkpt>
      <trkpt lat="59.4818893" lon="17.8861999">
        <ele>3.02124</ele>
        <time>2011-01-21T20:23:30Z</time>
      </trkpt>
      <trkpt lat="59.4816641" lon="17.8865019">
        <ele>1.57935</ele>
        <time>2011-01-21T20:23:35Z</time>
      </trkpt>
      <trkpt lat="59.4815873" lon="17.8866106">
        <ele>1.57935</ele>
        <time>2011-01-21T20:23:37Z</time>
      </trkpt>
      <trkpt lat="59.4815124" lon="17.8866934">
        <ele>1.09863</ele>
        <time>2011-01-21T20:23:39Z</time>
      </trkpt>
      <trkpt lat="59.4813826" lon="17.8868086">
        <ele>0.137451</ele>
        <time>2011-01-21T20:23:43Z</time>
      </trkpt>
      <trkpt lat="59.4811829" lon="17.8869486">
        <ele>0</ele>
        <time>2011-01-21T20:23:50Z</time>
      </trkpt>
      <trkpt lat="59.4810402" lon="17.8869841">
        <ele>0.137451</ele>
        <time>2011-01-21T20:23:54Z</time>
      </trkpt>
      <trkpt lat="59.4809166" lon="17.8869301">
        <ele>1.09863</ele>
        <time>2011-01-21T20:23:58Z</time>
      </trkpt>
      <trkpt lat="59.4808471" lon="17.8868523">
        <ele>1.09863</ele>
        <time>2011-01-21T20:24:01Z</time>
      </trkpt>
      <trkpt lat="59.4808154" lon="17.8867882">
        <ele>2.06006</ele>
        <time>2011-01-21T20:24:03Z</time>
      </trkpt>
      <trkpt lat="59.4807679" lon="17.8865934">
        <ele>3.50195</ele>
        <time>2011-01-21T20:24:07Z</time>
      </trkpt>
      <trkpt lat="59.4807337" lon="17.8862266">
        <ele>4.46326</ele>
        <time>2011-01-21T20:24:13Z</time>
      </trkpt>
      <trkpt lat="59.4807343" lon="17.8860474">
        <ele>5.42456</ele>
        <time>2011-01-21T20:24:16Z</time>
      </trkpt>
      <trkpt lat="59.4807335" lon="17.8857569">
        <ele>5.90527</ele>
        <time>2011-01-21T20:24:21Z</time>
      </trkpt>
      <trkpt lat="59.480744" lon="17.8855">
        <ele>6.38586</ele>
        <time>2011-01-21T20:24:25Z</time>
      </trkpt>
      <trkpt lat="59.4807649" lon="17.8851289">
        <ele>6.38586</ele>
        <time>2011-01-21T20:24:30Z</time>
      </trkpt>
      <trkpt lat="59.4807498" lon="17.8848477">
        <ele>6.38586</ele>
        <time>2011-01-21T20:24:34Z</time>
      </trkpt>
      <trkpt lat="59.4806954" lon="17.8846214">
        <ele>7.34717</ele>
        <time>2011-01-21T20:24:38Z</time>
      </trkpt>
      <trkpt lat="59.4806431" lon="17.8844842">
        <ele>8.30859</ele>
        <time>2011-01-21T20:24:41Z</time>
      </trkpt>
      <trkpt lat="59.4805649" lon="17.8843351">
        <ele>9.75061</ele>
        <time>2011-01-21T20:24:45Z</time>
      </trkpt>
      <trkpt lat="59.480546" lon="17.8843071">
        <ele>10.2312</ele>
        <time>2011-01-21T20:24:46Z</time>
      </trkpt>
      <trkpt lat="59.4804456" lon="17.8841246">
        <ele>11.1925</ele>
        <time>2011-01-21T20:24:51Z</time>
      </trkpt>
      <trkpt lat="59.4803837" lon="17.8840198">
        <ele>10.7118</ele>
        <time>2011-01-21T20:24:54Z</time>
      </trkpt>
      <trkpt lat="59.4803358" lon="17.8839535">
        <ele>11.1925</ele>
        <time>2011-01-21T20:24:56Z</time>
      </trkpt>
      <trkpt lat="59.4802198" lon="17.8838211">
        <ele>12.1538</ele>
        <time>2011-01-21T20:25:01Z</time>
      </trkpt>
      <trkpt lat="59.4801115" lon="17.8837421">
        <ele>11.6732</ele>
        <time>2011-01-21T20:25:05Z</time>
      </trkpt>
      <trkpt lat="59.479936" lon="17.8837144">
        <ele>10.7118</ele>
        <time>2011-01-21T20:25:10Z</time>
      </trkpt>
      <trkpt lat="59.479777" lon="17.8837781">
        <ele>10.7118</ele>
        <time>2011-01-21T20:25:14Z</time>
      </trkpt>
      <trkpt lat="59.4795929" lon="17.8839141">
        <ele>11.1925</ele>
        <time>2011-01-21T20:25:19Z</time>
      </trkpt>
      <trkpt lat="59.4794418" lon="17.8840008">
        <ele>11.1925</ele>
        <time>2011-01-21T20:25:23Z</time>
      </trkpt>
      <trkpt lat="59.4792959" lon="17.8840884">
        <ele>10.7118</ele>
        <time>2011-01-21T20:25:27Z</time>
      </trkpt>
      <trkpt lat="59.4791295" lon="17.8841982">
        <ele>11.1925</ele>
        <time>2011-01-21T20:25:32Z</time>
      </trkpt>
      <trkpt lat="59.4789819" lon="17.8843588">
        <ele>10.7118</ele>
        <time>2011-01-21T20:25:37Z</time>
      </trkpt>
      <trkpt lat="59.4788906" lon="17.8845168">
        <ele>11.1925</ele>
        <time>2011-01-21T20:25:41Z</time>
      </trkpt>
      <trkpt lat="59.4787672" lon="17.8846761">
        <ele>11.1925</ele>
        <time>2011-01-21T20:25:45Z</time>
      </trkpt>
      <trkpt lat="59.4785488" lon="17.8847601">
        <ele>10.2312</ele>
        <time>2011-01-21T20:25:49Z</time>
      </trkpt>
      <trkpt lat="59.4784633" lon="17.884757">
        <ele>9.75061</ele>
        <time>2011-01-21T20:25:51Z</time>
      </trkpt>
      <trkpt lat="59.4783515" lon="17.8847759">
        <ele>10.2312</ele>
        <time>2011-01-21T20:25:54Z</time>
      </trkpt>
      <trkpt lat="59.4782887" lon="17.8848121">
        <ele>10.2312</ele>
        <time>2011-01-21T20:25:56Z</time>
      </trkpt>
      <trkpt lat="59.4781463" lon="17.8849704">
        <ele>9.75061</ele>
        <time>2011-01-21T20:26:01Z</time>
      </trkpt>
      <trkpt lat="59.4780034" lon="17.8851243">
        <ele>9.75061</ele>
        <time>2011-01-21T20:26:05Z</time>
      </trkpt>
      <trkpt lat="59.477893" lon="17.8853031">
        <ele>9.2699</ele>
        <time>2011-01-21T20:26:09Z</time>
      </trkpt>
      <trkpt lat="59.477836" lon="17.8856817">
        <ele>8.30859</ele>
        <time>2011-01-21T20:26:15Z</time>
      </trkpt>
      <trkpt lat="59.4777859" lon="17.8859662">
        <ele>7.82788</ele>
        <time>2011-01-21T20:26:19Z</time>
      </trkpt>
      <trkpt lat="59.4777701" lon="17.8860299">
        <ele>7.34717</ele>
        <time>2011-01-21T20:26:20Z</time>
      </trkpt>
      <trkpt lat="59.4776439" lon="17.886169">
        <ele>7.34717</ele>
        <time>2011-01-21T20:26:25Z</time>
      </trkpt>
      <trkpt lat="59.4773873" lon="17.8862195">
        <ele>5.42456</ele>
        <time>2011-01-21T20:26:31Z</time>
      </trkpt>
      <trkpt lat="59.4772631" lon="17.8862384">
        <ele>4.94385</ele>
        <time>2011-01-21T20:26:34Z</time>
      </trkpt>
      <trkpt lat="59.4770656" lon="17.8863879">
        <ele>5.90527</ele>
        <time>2011-01-21T20:26:40Z</time>
      </trkpt>
      <trkpt lat="59.476984" lon="17.8865204">
        <ele>6.86646</ele>
        <time>2011-01-21T20:26:43Z</time>
      </trkpt>
      <trkpt lat="59.4768751" lon="17.8867789">
        <ele>7.34717</ele>
        <time>2011-01-21T20:26:48Z</time>
      </trkpt>
      <trkpt lat="59.4767697" lon="17.8870044">
        <ele>6.86646</ele>
        <time>2011-01-21T20:26:52Z</time>
      </trkpt>
      <trkpt lat="59.4766696" lon="17.8872315">
        <ele>6.86646</ele>
        <time>2011-01-21T20:26:56Z</time>
      </trkpt>
      <trkpt lat="59.4765524" lon="17.8874464">
        <ele>6.86646</ele>
        <time>2011-01-21T20:27:00Z</time>
      </trkpt>
      <trkpt lat="59.476417" lon="17.8876134">
        <ele>6.38586</ele>
        <time>2011-01-21T20:27:04Z</time>
      </trkpt>
      <trkpt lat="59.4763505" lon="17.8877466">
        <ele>5.90527</ele>
        <time>2011-01-21T20:27:07Z</time>
      </trkpt>
      <trkpt lat="59.476327" lon="17.888003">
        <ele>5.90527</ele>
        <time>2011-01-21T20:27:11Z</time>
      </trkpt>
      <trkpt lat="59.4763408" lon="17.8882434">
        <ele>5.42456</ele>
        <time>2011-01-21T20:27:15Z</time>
      </trkpt>
      <trkpt lat="59.4764009" lon="17.8884552">
        <ele>5.90527</ele>
        <time>2011-01-21T20:27:19Z</time>
      </trkpt>
      <trkpt lat="59.4765561" lon="17.8886685">
        <ele>5.90527</ele>
        <time>2011-01-21T20:27:24Z</time>
      </trkpt>
      <trkpt lat="59.4767496" lon="17.888727">
        <ele>3.98267</ele>
        <time>2011-01-21T20:27:29Z</time>
      </trkpt>
      <trkpt lat="59.4768414" lon="17.8887042">
        <ele>3.02124</ele>
        <time>2011-01-21T20:27:32Z</time>
      </trkpt>
      <trkpt lat="59.4769837" lon="17.8886773">
        <ele>3.02124</ele>
        <time>2011-01-21T20:27:36Z</time>
      </trkpt>
      <trkpt lat="59.4771527" lon="17.888629">
        <ele>4.94385</ele>
        <time>2011-01-21T20:27:40Z</time>
      </trkpt>
      <trkpt lat="59.4772968" lon="17.8885733">
        <ele>6.86646</ele>
        <time>2011-01-21T20:27:44Z</time>
      </trkpt>
      <trkpt lat="59.4774723" lon="17.8885003">
        <ele>7.82788</ele>
        <time>2011-01-21T20:27:50Z</time>
      </trkpt>
      <trkpt lat="59.4775796" lon="17.8884614">
        <ele>8.30859</ele>
        <time>2011-01-21T20:27:54Z</time>
      </trkpt>
      <trkpt lat="59.4776918" lon="17.8884324">
        <ele>8.78918</ele>
        <time>2011-01-21T20:27:58Z</time>
      </trkpt>
      <trkpt lat="59.4778349" lon="17.8883985">
        <ele>8.78918</ele>
        <time>2011-01-21T20:28:03Z</time>
      </trkpt>
      <trkpt lat="59.4779387" lon="17.8883203">
        <ele>8.30859</ele>
        <time>2011-01-21T20:28:07Z</time>
      </trkpt>
      <trkpt lat="59.4780208" lon="17.8882028">
        <ele>8.30859</ele>
        <time>2011-01-21T20:28:10Z</time>
      </trkpt>
      <trkpt lat="59.4780593" lon="17.8878705">
        <ele>9.2699</ele>
        <time>2011-01-21T20:28:16Z</time>
      </trkpt>
      <trkpt lat="59.4780266" lon="17.8875645">
        <ele>9.75061</ele>
        <time>2011-01-21T20:28:20Z</time>
      </trkpt>
      <trkpt lat="59.4779566" lon="17.8869491">
        <ele>9.2699</ele>
        <time>2011-01-21T20:28:26Z</time>
      </trkpt>
      <trkpt lat="59.4779304" lon="17.8865588">
        <ele>10.2312</ele>
        <time>2011-01-21T20:28:30Z</time>
      </trkpt>
      <trkpt lat="59.4779591" lon="17.8862151">
        <ele>10.2312</ele>
        <time>2011-01-21T20:28:34Z</time>
      </trkpt>
      <trkpt lat="59.4781305" lon="17.8860423">
        <ele>6.38586</ele>
        <time>2011-01-21T20:28:39Z</time>
      </trkpt>
      <trkpt lat="59.4781692" lon="17.8860428">
        <ele>5.90527</ele>
        <time>2011-01-21T20:28:40Z</time>
      </trkpt>
      <trkpt lat="59.4783587" lon="17.8862371">
        <ele>3.02124</ele>
        <time>2011-01-21T20:28:45Z</time>
      </trkpt>
      <trkpt lat="59.4784379" lon="17.8864395">
        <ele>2.06006</ele>
        <time>2011-01-21T20:28:48Z</time>
      </trkpt>
      <trkpt lat="59.4784772" lon="17.8865759">
        <ele>2.54065</ele>
        <time>2011-01-21T20:28:50Z</time>
      </trkpt>
      <trkpt lat="59.4785595" lon="17.8869333">
        <ele>4.94385</ele>
        <time>2011-01-21T20:28:56Z</time>
      </trkpt>
      <trkpt lat="59.4786294" lon="17.8872667">
        <ele>6.38586</ele>
        <time>2011-01-21T20:29:01Z</time>
      </trkpt>
      <trkpt lat="59.478712" lon="17.8875493">
        <ele>7.34717</ele>
        <time>2011-01-21T20:29:06Z</time>
      </trkpt>
      <trkpt lat="59.4787226" lon="17.8877078">
        <ele>7.82788</ele>
        <time>2011-01-21T20:29:09Z</time>
      </trkpt>
      <trkpt lat="59.4786674" lon="17.8880338">
        <ele>6.38586</ele>
        <time>2011-01-21T20:29:15Z</time>
      </trkpt>
      <trkpt lat="59.4786622" lon="17.8880848">
        <ele>6.38586</ele>
        <time>2011-01-21T20:29:16Z</time>
      </trkpt>
      <trkpt lat="59.4786437" lon="17.8881952">
        <ele>6.86646</ele>
        <time>2011-01-21T20:29:18Z</time>
      </trkpt>
      <trkpt lat="59.4785623" lon="17.8883809">
        <ele>7.34717</ele>
        <time>2011-01-21T20:29:22Z</time>
      </trkpt>
      <trkpt lat="59.4784461" lon="17.8885415">
        <ele>7.82788</ele>
        <time>2011-01-21T20:29:26Z</time>
      </trkpt>
      <trkpt lat="59.4782799" lon="17.8886966">
        <ele>8.30859</ele>
        <time>2011-01-21T20:29:30Z</time>
      </trkpt>
      <trkpt lat="59.4782374" lon="17.8887391">
        <ele>8.30859</ele>
        <time>2011-01-21T20:29:31Z</time>
      </trkpt>
      <trkpt lat="59.4781145" lon="17.8888557">
        <ele>8.78918</ele>
        <time>2011-01-21T20:29:34Z</time>
      </trkpt>
      <trkpt lat="59.4779478" lon="17.8889851">
        <ele>9.2699</ele>
        <time>2011-01-21T20:29:38Z</time>
      </trkpt>
      <trkpt lat="59.4777045" lon="17.889223">
        <ele>8.78918</ele>
        <time>2011-01-21T20:29:44Z</time>
      </trkpt>
      <trkpt lat="59.4776222" lon="17.8893151">
        <ele>8.30859</ele>
        <time>2011-01-21T20:29:46Z</time>
      </trkpt>
      <trkpt lat="59.4774889" lon="17.8894346">
        <ele>7.34717</ele>
        <time>2011-01-21T20:29:49Z</time>
      </trkpt>
      <trkpt lat="59.4773103" lon="17.8895694">
        <ele>6.86646</ele>
        <time>2011-01-21T20:29:53Z</time>
      </trkpt>
      <trkpt lat="59.4770967" lon="17.8896813">
        <ele>5.42456</ele>
        <time>2011-01-21T20:29:57Z</time>
      </trkpt>
      <trkpt lat="59.4769456" lon="17.8897408">
        <ele>4.46326</ele>
        <time>2011-01-21T20:30:00Z</time>
      </trkpt>
      <trkpt lat="59.4767601" lon="17.8897951">
        <ele>3.98267</ele>
        <time>2011-01-21T20:30:04Z</time>
      </trkpt>
      <trkpt lat="59.4765941" lon="17.8897839">
        <ele>3.02124</ele>
        <time>2011-01-21T20:30:08Z</time>
      </trkpt>
      <trkpt lat="59.4764747" lon="17.8897659">
        <ele>3.02124</ele>
        <time>2011-01-21T20:30:11Z</time>
      </trkpt>
      <trkpt lat="59.4763636" lon="17.8897109">
        <ele>3.02124</ele>
        <time>2011-01-21T20:30:14Z</time>
      </trkpt>
      <trkpt lat="59.4762184" lon="17.8894944">
        <ele>2.54065</ele>
        <time>2011-01-21T20:30:19Z</time>
      </trkpt>
      <trkpt lat="59.4761819" lon="17.8893968">
        <ele>3.02124</ele>
        <time>2011-01-21T20:30:21Z</time>
      </trkpt>
      <trkpt lat="59.476069" lon="17.8890965">
        <ele>5.42456</ele>
        <time>2011-01-21T20:30:27Z</time>
      </trkpt>
      <trkpt lat="59.4759375" lon="17.8889468">
        <ele>7.34717</ele>
        <time>2011-01-21T20:30:32Z</time>
      </trkpt>
      <trkpt lat="59.475791" lon="17.8890389">
        <ele>7.82788</ele>
        <time>2011-01-21T20:30:37Z</time>
      </trkpt>
      <trkpt lat="59.4757389" lon="17.8892659">
        <ele>7.34717</ele>
        <time>2011-01-21T20:30:41Z</time>
      </trkpt>
      <trkpt lat="59.4757163" lon="17.8895617">
        <ele>6.86646</ele>
        <time>2011-01-21T20:30:45Z</time>
      </trkpt>
      <trkpt lat="59.4757267" lon="17.8897371">
        <ele>6.86646</ele>
        <time>2011-01-21T20:30:48Z</time>
      </trkpt>
      <trkpt lat="59.4757197" lon="17.8898366">
        <ele>6.86646</ele>
        <time>2011-01-21T20:30:50Z</time>
      </trkpt>
      <trkpt lat="59.4757236" lon="17.8898213">
        <ele>6.86646</ele>
        <time>2011-01-21T20:30:52Z</time>
      </trkpt>
      <trkpt lat="59.4757266" lon="17.8897876">
        <ele>6.86646</ele>
        <time>2011-01-21T20:30:54Z</time>
      </trkpt>
      <trkpt lat="59.4757491" lon="17.8898602">
        <ele>6.86646</ele>
        <time>2011-01-21T20:30:59Z</time>
      </trkpt>
      <trkpt lat="59.4757601" lon="17.8898901">
        <ele>6.86646</ele>
        <time>2011-01-21T20:31:00Z</time>
      </trkpt>
      <trkpt lat="59.4758603" lon="17.890063">
        <ele>7.82788</ele>
        <time>2011-01-21T20:31:05Z</time>
      </trkpt>
      <trkpt lat="59.4759603" lon="17.8903008">
        <ele>7.34717</ele>
        <time>2011-01-21T20:31:09Z</time>
      </trkpt>
      <trkpt lat="59.4760283" lon="17.8907277">
        <ele>5.90527</ele>
        <time>2011-01-21T20:31:14Z</time>
      </trkpt>
      <trkpt lat="59.4760406" lon="17.890811">
        <ele>5.90527</ele>
        <time>2011-01-21T20:31:15Z</time>
      </trkpt>
      <trkpt lat="59.4760692" lon="17.8910462">
        <ele>5.90527</ele>
        <time>2011-01-21T20:31:18Z</time>
      </trkpt>
      <trkpt lat="59.4761572" lon="17.8913939">
        <ele>4.94385</ele>
        <time>2011-01-21T20:31:23Z</time>
      </trkpt>
      <trkpt lat="59.4762425" lon="17.8914058">
        <ele>4.46326</ele>
        <time>2011-01-21T20:31:26Z</time>
      </trkpt>
      <trkpt lat="59.4763161" lon="17.891239">
        <ele>3.02124</ele>
        <time>2011-01-21T20:31:30Z</time>
      </trkpt>
      <trkpt lat="59.4763281" lon="17.8911235">
        <ele>2.54065</ele>
        <time>2011-01-21T20:31:32Z</time>
      </trkpt>
      <trkpt lat="59.4763075" lon="17.8908142">
        <ele>3.50195</ele>
        <time>2011-01-21T20:31:37Z</time>
      </trkpt>
      <trkpt lat="59.4762939" lon="17.8905077">
        <ele>4.46326</ele>
        <time>2011-01-21T20:31:42Z</time>
      </trkpt>
      <trkpt lat="59.4763269" lon="17.8903119">
        <ele>5.42456</ele>
        <time>2011-01-21T20:31:46Z</time>
      </trkpt>
      <trkpt lat="59.4763637" lon="17.8902572">
        <ele>5.42456</ele>
        <time>2011-01-21T20:31:48Z</time>
      </trkpt>
      <trkpt lat="59.4764652" lon="17.8902776">
        <ele>3.50195</ele>
        <time>2011-01-21T20:31:52Z</time>
      </trkpt>
      <trkpt lat="59.4766187" lon="17.8904338">
        <ele>1.09863</ele>
        <time>2011-01-21T20:31:57Z</time>
      </trkpt>
      <trkpt lat="59.4767404" lon="17.890606">
        <ele>2.06006</ele>
        <time>2011-01-21T20:32:01Z</time>
      </trkpt>
      <trkpt lat="59.4768676" lon="17.8907883">
        <ele>2.54065</ele>
        <time>2011-01-21T20:32:05Z</time>
      </trkpt>
      <trkpt lat="59.4770029" lon="17.8909448">
        <ele>3.02124</ele>
        <time>2011-01-21T20:32:09Z</time>
      </trkpt>
      <trkpt lat="59.4771525" lon="17.8910618">
        <ele>3.50195</ele>
        <time>2011-01-21T20:32:13Z</time>
      </trkpt>
      <trkpt lat="59.4773025" lon="17.8910742">
        <ele>2.06006</ele>
        <time>2011-01-21T20:32:17Z</time>
      </trkpt>
      <trkpt lat="59.4774747" lon="17.8910487">
        <ele>1.09863</ele>
        <time>2011-01-21T20:32:21Z</time>
      </trkpt>
      <trkpt lat="59.4776788" lon="17.8910162">
        <ele>0</ele>
        <time>2011-01-21T20:32:26Z</time>
      </trkpt>
      <trkpt lat="59.4778003" lon="17.890981">
        <ele>1.09863</ele>
        <time>2011-01-21T20:32:30Z</time>
      </trkpt>
      <trkpt lat="59.4778703" lon="17.8909535">
        <ele>1.57935</ele>
        <time>2011-01-21T20:32:32Z</time>
      </trkpt>
      <trkpt lat="59.4780617" lon="17.8907919">
        <ele>1.09863</ele>
        <time>2011-01-21T20:32:37Z</time>
      </trkpt>
      <trkpt lat="59.4782538" lon="17.890621">
        <ele>0.618042</ele>
        <time>2011-01-21T20:32:42Z</time>
      </trkpt>
      <trkpt lat="59.4784447" lon="17.8905169">
        <ele>2.06006</ele>
        <time>2011-01-21T20:32:47Z</time>
      </trkpt>
      <trkpt lat="59.4785836" lon="17.8904599">
        <ele>3.50195</ele>
        <time>2011-01-21T20:32:51Z</time>
      </trkpt>
      <trkpt lat="59.478752" lon="17.8903874">
        <ele>4.46326</ele>
        <time>2011-01-21T20:32:55Z</time>
      </trkpt>
      <trkpt lat="59.4790123" lon="17.8902911">
        <ele>3.50195</ele>
        <time>2011-01-21T20:33:02Z</time>
      </trkpt>
      <trkpt lat="59.4791104" lon="17.8902228">
        <ele>3.98267</ele>
        <time>2011-01-21T20:33:05Z</time>
      </trkpt>
      <trkpt lat="59.4792418" lon="17.8900755">
        <ele>3.98267</ele>
        <time>2011-01-21T20:33:10Z</time>
      </trkpt>
      <trkpt lat="59.4792718" lon="17.8900468">
        <ele>3.98267</ele>
        <time>2011-01-21T20:33:11Z</time>
      </trkpt>
      <trkpt lat="59.479374" lon="17.8899207">
        <ele>3.98267</ele>
        <time>2011-01-21T20:33:15Z</time>
      </trkpt>
      <trkpt lat="59.4794962" lon="17.8897906">
        <ele>3.98267</ele>
        <time>2011-01-21T20:33:19Z</time>
      </trkpt>
      <trkpt lat="59.4796599" lon="17.8897115">
        <ele>3.02124</ele>
        <time>2011-01-21T20:33:24Z</time>
      </trkpt>
      <trkpt lat="59.4797956" lon="17.8897221">
        <ele>1.57935</ele>
        <time>2011-01-21T20:33:28Z</time>
      </trkpt>
      <trkpt lat="59.4800053" lon="17.8897621">
        <ele>0</ele>
        <time>2011-01-21T20:33:33Z</time>
      </trkpt>
      <trkpt lat="59.4802255" lon="17.8898086">
        <ele>0</ele>
        <time>2011-01-21T20:33:38Z</time>
      </trkpt>
      <trkpt lat="59.4802674" lon="17.889816">
        <ele>0</ele>
        <time>2011-01-21T20:33:39Z</time>
      </trkpt>
      <trkpt lat="59.480438" lon="17.889857">
        <ele>0</ele>
        <time>2011-01-21T20:33:43Z</time>
      </trkpt>
      <trkpt lat="59.4806727" lon="17.8898833">
        <ele>0</ele>
        <time>2011-01-21T20:33:49Z</time>
      </trkpt>
      <trkpt lat="59.4808576" lon="17.8898575">
        <ele>0</ele>
        <time>2011-01-21T20:33:54Z</time>
      </trkpt>
      <trkpt lat="59.4810281" lon="17.8898243">
        <ele>0</ele>
        <time>2011-01-21T20:33:58Z</time>
      </trkpt>
      <trkpt lat="59.4811169" lon="17.8897909">
        <ele>0</ele>
        <time>2011-01-21T20:34:00Z</time>
      </trkpt>
      <trkpt lat="59.4812538" lon="17.8897243">
        <ele>0</ele>
        <time>2011-01-21T20:34:03Z</time>
      </trkpt>
      <trkpt lat="59.48143" lon="17.8895502">
        <ele>0</ele>
        <time>2011-01-21T20:34:07Z</time>
      </trkpt>
      <trkpt lat="59.4816009" lon="17.8893493">
        <ele>0</ele>
        <time>2011-01-21T20:34:12Z</time>
      </trkpt>
      <trkpt lat="59.4817854" lon="17.8891544">
        <ele>0</ele>
        <time>2011-01-21T20:34:18Z</time>
      </trkpt>
      <trkpt lat="59.4819208" lon="17.8889909">
        <ele>0</ele>
        <time>2011-01-21T20:34:23Z</time>
      </trkpt>
      <trkpt lat="59.482041" lon="17.8888473">
        <ele>0</ele>
        <time>2011-01-21T20:34:27Z</time>
      </trkpt>
      <trkpt lat="59.4822073" lon="17.8886904">
        <ele>0.137451</ele>
        <time>2011-01-21T20:34:32Z</time>
      </trkpt>
      <trkpt lat="59.4823054" lon="17.8886373">
        <ele>0.618042</ele>
        <time>2011-01-21T20:34:35Z</time>
      </trkpt>
      <trkpt lat="59.4824488" lon="17.8885988">
        <ele>1.09863</ele>
        <time>2011-01-21T20:34:39Z</time>
      </trkpt>
      <trkpt lat="59.4826297" lon="17.8885438">
        <ele>0</ele>
        <time>2011-01-21T20:34:44Z</time>
      </trkpt>
      <trkpt lat="59.4827903" lon="17.8884594">
        <ele>0.137451</ele>
        <time>2011-01-21T20:34:48Z</time>
      </trkpt>
      <trkpt lat="59.4829813" lon="17.8883034">
        <ele>1.09863</ele>
        <time>2011-01-21T20:34:53Z</time>
      </trkpt>
      <trkpt lat="59.483082" lon="17.8881823">
        <ele>2.06006</ele>
        <time>2011-01-21T20:34:56Z</time>
      </trkpt>
      <trkpt lat="59.4832068" lon="17.8879412">
        <ele>1.57935</ele>
        <time>2011-01-21T20:35:01Z</time>
      </trkpt>
      <trkpt lat="59.4832912" lon="17.8876948">
        <ele>2.06006</ele>
        <time>2011-01-21T20:35:05Z</time>
      </trkpt>
      <trkpt lat="59.4833205" lon="17.8874544">
        <ele>2.54065</ele>
        <time>2011-01-21T20:35:09Z</time>
      </trkpt>
      <trkpt lat="59.4833502" lon="17.8872125">
        <ele>3.50195</ele>
        <time>2011-01-21T20:35:13Z</time>
      </trkpt>
      <trkpt lat="59.483407" lon="17.8869513">
        <ele>3.02124</ele>
        <time>2011-01-21T20:35:17Z</time>
      </trkpt>
      <trkpt lat="59.4835282" lon="17.8866207">
        <ele>2.06006</ele>
        <time>2011-01-21T20:35:22Z</time>
      </trkpt>
      <trkpt lat="59.4836362" lon="17.886422">
        <ele>0.618042</ele>
        <time>2011-01-21T20:35:26Z</time>
      </trkpt>
      <trkpt lat="59.4838569" lon="17.8862201">
        <ele>0</ele>
        <time>2011-01-21T20:35:32Z</time>
      </trkpt>
      <trkpt lat="59.4839823" lon="17.8860858">
        <ele>0</ele>
        <time>2011-01-21T20:35:36Z</time>
      </trkpt>
      <trkpt lat="59.4840826" lon="17.8859247">
        <ele>0</ele>
        <time>2011-01-21T20:35:40Z</time>
      </trkpt>
      <trkpt lat="59.4841685" lon="17.8857047">
        <ele>0.618042</ele>
        <time>2011-01-21T20:35:45Z</time>
      </trkpt>
      <trkpt lat="59.4842408" lon="17.8855339">
        <ele>2.54065</ele>
        <time>2011-01-21T20:35:50Z</time>
      </trkpt>
      <trkpt lat="59.4843278" lon="17.885311">
        <ele>4.46326</ele>
        <time>2011-01-21T20:35:56Z</time>
      </trkpt>
      <trkpt lat="59.4844116" lon="17.8850869">
        <ele>5.90527</ele>
        <time>2011-01-21T20:36:02Z</time>
      </trkpt>
      <trkpt lat="59.4844674" lon="17.8849279">
        <ele>6.38586</ele>
        <time>2011-01-21T20:36:06Z</time>
      </trkpt>
      <trkpt lat="59.4845328" lon="17.8847561">
        <ele>7.34717</ele>
        <time>2011-01-21T20:36:10Z</time>
      </trkpt>
      <trkpt lat="59.484637" lon="17.8846459">
        <ele>6.86646</ele>
        <time>2011-01-21T20:36:14Z</time>
      </trkpt>
      <trkpt lat="59.4847601" lon="17.8845765">
        <ele>7.34717</ele>
        <time>2011-01-21T20:36:18Z</time>
      </trkpt>
      <trkpt lat="59.4848975" lon="17.8844554">
        <ele>7.82788</ele>
        <time>2011-01-21T20:36:22Z</time>
      </trkpt>
      <trkpt lat="59.4850348" lon="17.8843667">
        <ele>8.78918</ele>
        <time>2011-01-21T20:36:26Z</time>
      </trkpt>
      <trkpt lat="59.4851359" lon="17.8842917">
        <ele>8.30859</ele>
        <time>2011-01-21T20:36:30Z</time>
      </trkpt>
      <trkpt lat="59.4852887" lon="17.884263">
        <ele>7.82788</ele>
        <time>2011-01-21T20:36:35Z</time>
      </trkpt>
      <trkpt lat="59.4854342" lon="17.8842438">
        <ele>7.82788</ele>
        <time>2011-01-21T20:36:40Z</time>
      </trkpt>
      <trkpt lat="59.4855999" lon="17.8842546">
        <ele>8.30859</ele>
        <time>2011-01-21T20:36:45Z</time>
      </trkpt>
      <trkpt lat="59.4857216" lon="17.88427">
        <ele>8.78918</ele>
        <time>2011-01-21T20:36:49Z</time>
      </trkpt>
      <trkpt lat="59.4858677" lon="17.8842944">
        <ele>8.30859</ele>
        <time>2011-01-21T20:36:54Z</time>
      </trkpt>
      <trkpt lat="59.4859916" lon="17.884313">
        <ele>7.34717</ele>
        <time>2011-01-21T20:36:58Z</time>
      </trkpt>
      <trkpt lat="59.4861267" lon="17.8842998">
        <ele>6.38586</ele>
        <time>2011-01-21T20:37:03Z</time>
      </trkpt>
      <trkpt lat="59.4862656" lon="17.8842991">
        <ele>5.90527</ele>
        <time>2011-01-21T20:37:07Z</time>
      </trkpt>
      <trkpt lat="59.4864399" lon="17.8843075">
        <ele>6.38586</ele>
        <time>2011-01-21T20:37:12Z</time>
      </trkpt>
      <trkpt lat="59.4864697" lon="17.8843012">
        <ele>6.86646</ele>
        <time>2011-01-21T20:37:13Z</time>
      </trkpt>
      <trkpt lat="59.4865842" lon="17.884251">
        <ele>6.38586</ele>
        <time>2011-01-21T20:37:17Z</time>
      </trkpt>
      <trkpt lat="59.4866555" lon="17.8842156">
        <ele>5.90527</ele>
        <time>2011-01-21T20:37:19Z</time>
      </trkpt>
      <trkpt lat="59.4868733" lon="17.8841252">
        <ele>7.34717</ele>
        <time>2011-01-21T20:37:24Z</time>
      </trkpt>
      <trkpt lat="59.4870732" lon="17.8841235">
        <ele>5.42456</ele>
        <time>2011-01-21T20:37:28Z</time>
      </trkpt>
      <trkpt lat="59.4874112" lon="17.8840735">
        <ele>7.34717</ele>
        <time>2011-01-21T20:37:34Z</time>
      </trkpt>
      <trkpt lat="59.487463" lon="17.8840302">
        <ele>7.34717</ele>
        <time>2011-01-21T20:37:35Z</time>
      </trkpt>
      <trkpt lat="59.4876802" lon="17.883889">
        <ele>7.34717</ele>
        <time>2011-01-21T20:37:39Z</time>
      </trkpt>
      <trkpt lat="59.4878974" lon="17.8838594">
        <ele>6.86646</ele>
        <time>2011-01-21T20:37:43Z</time>
      </trkpt>
      <trkpt lat="59.4881537" lon="17.8837827">
        <ele>5.90527</ele>
        <time>2011-01-21T20:37:48Z</time>
      </trkpt>
      <trkpt lat="59.4882468" lon="17.8835786">
        <ele>5.90527</ele>
        <time>2011-01-21T20:37:51Z</time>
      </trkpt>
      <trkpt lat="59.4883039" lon="17.8834341">
        <ele>5.42456</ele>
        <time>2011-01-21T20:37:53Z</time>
      </trkpt>
      <trkpt lat="59.4883547" lon="17.8832761">
        <ele>4.46326</ele>
        <time>2011-01-21T20:37:55Z</time>
      </trkpt>
      <trkpt lat="59.4884034" lon="17.8830068">
        <ele>5.42456</ele>
        <time>2011-01-21T20:38:00Z</time>
      </trkpt>
      <trkpt lat="59.4884069" lon="17.8828926">
        <ele>5.90527</ele>
        <time>2011-01-21T20:38:02Z</time>
      </trkpt>
      <trkpt lat="59.4884221" lon="17.8825284">
        <ele>6.86646</ele>
        <time>2011-01-21T20:38:09Z</time>
      </trkpt>
      <trkpt lat="59.4884598" lon="17.8822982">
        <ele>6.38586</ele>
        <time>2011-01-21T20:38:13Z</time>
      </trkpt>
      <trkpt lat="59.4885577" lon="17.8821428">
        <ele>5.90527</ele>
        <time>2011-01-21T20:38:17Z</time>
      </trkpt>
      <trkpt lat="59.4886987" lon="17.8820045">
        <ele>4.46326</ele>
        <time>2011-01-21T20:38:21Z</time>
      </trkpt>
      <trkpt lat="59.4888202" lon="17.8817825">
        <ele>2.54065</ele>
        <time>2011-01-21T20:38:25Z</time>
      </trkpt>
      <trkpt lat="59.4889256" lon="17.8816051">
        <ele>2.06006</ele>
        <time>2011-01-21T20:38:29Z</time>
      </trkpt>
      <trkpt lat="59.489052" lon="17.8814989">
        <ele>1.09863</ele>
        <time>2011-01-21T20:38:33Z</time>
      </trkpt>
      <trkpt lat="59.4892439" lon="17.8813823">
        <ele>0.137451</ele>
        <time>2011-01-21T20:38:37Z</time>
      </trkpt>
      <trkpt lat="59.4895716" lon="17.8813884">
        <ele>0</ele>
        <time>2011-01-21T20:38:43Z</time>
      </trkpt>
      <trkpt lat="59.4897102" lon="17.8814046">
        <ele>0</ele>
        <time>2011-01-21T20:38:46Z</time>
      </trkpt>
      <trkpt lat="59.4899025" lon="17.8814589">
        <ele>0</ele>
        <time>2011-01-21T20:38:50Z</time>
      </trkpt>
      <trkpt lat="59.4900388" lon="17.8814705">
        <ele>0</ele>
        <time>2011-01-21T20:38:53Z</time>
      </trkpt>
      <trkpt lat="59.4902455" lon="17.8814606">
        <ele>0</ele>
        <time>2011-01-21T20:38:58Z</time>
      </trkpt>
      <trkpt lat="59.4903822" lon="17.8814587">
        <ele>0</ele>
        <time>2011-01-21T20:39:01Z</time>
      </trkpt>
      <trkpt lat="59.4905583" lon="17.88146">
        <ele>0</ele>
        <time>2011-01-21T20:39:05Z</time>
      </trkpt>
      <trkpt lat="59.4907712" lon="17.8814962">
        <ele>0</ele>
        <time>2011-01-21T20:39:10Z</time>
      </trkpt>
      <trkpt lat="59.4908935" lon="17.8814994">
        <ele>0</ele>
        <time>2011-01-21T20:39:13Z</time>
      </trkpt>
      <trkpt lat="59.4911593" lon="17.8815442">
        <ele>0</ele>
        <time>2011-01-21T20:39:20Z</time>
      </trkpt>
      <trkpt lat="59.4913224" lon="17.8815849">
        <ele>0</ele>
        <time>2011-01-21T20:39:24Z</time>
      </trkpt>
      <trkpt lat="59.4914114" lon="17.8816252">
        <ele>0</ele>
        <time>2011-01-21T20:39:26Z</time>
      </trkpt>
      <trkpt lat="59.4916193" lon="17.8816616">
        <ele>0</ele>
        <time>2011-01-21T20:39:31Z</time>
      </trkpt>
      <trkpt lat="59.491788" lon="17.8816983">
        <ele>0</ele>
        <time>2011-01-21T20:39:35Z</time>
      </trkpt>
      <trkpt lat="59.4918766" lon="17.8817497">
        <ele>0</ele>
        <time>2011-01-21T20:39:37Z</time>
      </trkpt>
      <trkpt lat="59.4920414" lon="17.8817538">
        <ele>0</ele>
        <time>2011-01-21T20:39:41Z</time>
      </trkpt>
      <trkpt lat="59.4921704" lon="17.8816931">
        <ele>0</ele>
        <time>2011-01-21T20:39:44Z</time>
      </trkpt>
      <trkpt lat="59.4922456" lon="17.8816293">
        <ele>0</ele>
        <time>2011-01-21T20:39:46Z</time>
      </trkpt>
      <trkpt lat="59.492404" lon="17.8814704">
        <ele>0.618042</ele>
        <time>2011-01-21T20:39:51Z</time>
      </trkpt>
      <trkpt lat="59.4924728" lon="17.8813531">
        <ele>0.618042</ele>
        <time>2011-01-21T20:39:54Z</time>
      </trkpt>
      <trkpt lat="59.4925988" lon="17.8811337">
        <ele>1.09863</ele>
        <time>2011-01-21T20:39:59Z</time>
      </trkpt>
      <trkpt lat="59.4926875" lon="17.8808678">
        <ele>1.57935</ele>
        <time>2011-01-21T20:40:04Z</time>
      </trkpt>
      <trkpt lat="59.4926982" lon="17.8806291">
        <ele>2.54065</ele>
        <time>2011-01-21T20:40:08Z</time>
      </trkpt>
      <trkpt lat="59.4926252" lon="17.8803913">
        <ele>2.06006</ele>
        <time>2011-01-21T20:40:12Z</time>
      </trkpt>
      <trkpt lat="59.492521" lon="17.880267">
        <ele>2.54065</ele>
        <time>2011-01-21T20:40:16Z</time>
      </trkpt>
      <trkpt lat="59.4924185" lon="17.8801415">
        <ele>3.98267</ele>
        <time>2011-01-21T20:40:20Z</time>
      </trkpt>
      <trkpt lat="59.4923336" lon="17.8799933">
        <ele>4.94385</ele>
        <time>2011-01-21T20:40:24Z</time>
      </trkpt>
      <trkpt lat="59.4922953" lon="17.8798304">
        <ele>5.42456</ele>
        <time>2011-01-21T20:40:27Z</time>
      </trkpt>
      <trkpt lat="59.4922753" lon="17.8795935">
        <ele>5.90527</ele>
        <time>2011-01-21T20:40:31Z</time>
      </trkpt>
      <trkpt lat="59.4922275" lon="17.8794074">
        <ele>5.42456</ele>
        <time>2011-01-21T20:40:35Z</time>
      </trkpt>
      <trkpt lat="59.4921428" lon="17.8792977">
        <ele>5.90527</ele>
        <time>2011-01-21T20:40:39Z</time>
      </trkpt>
      <trkpt lat="59.4920353" lon="17.8792439">
        <ele>6.38586</ele>
        <time>2011-01-21T20:40:43Z</time>
      </trkpt>
      <trkpt lat="59.491874" lon="17.8792781">
        <ele>6.38586</ele>
        <time>2011-01-21T20:40:48Z</time>
      </trkpt>
      <trkpt lat="59.4917363" lon="17.8793846">
        <ele>6.86646</ele>
        <time>2011-01-21T20:40:52Z</time>
      </trkpt>
      <trkpt lat="59.491634" lon="17.8794868">
        <ele>7.34717</ele>
        <time>2011-01-21T20:40:55Z</time>
      </trkpt>
      <trkpt lat="59.4914944" lon="17.8796134">
        <ele>7.82788</ele>
        <time>2011-01-21T20:40:59Z</time>
      </trkpt>
      <trkpt lat="59.4913598" lon="17.8797143">
        <ele>8.78918</ele>
        <time>2011-01-21T20:41:03Z</time>
      </trkpt>
      <trkpt lat="59.4912318" lon="17.8797462">
        <ele>8.78918</ele>
        <time>2011-01-21T20:41:07Z</time>
      </trkpt>
      <trkpt lat="59.4910796" lon="17.8796647">
        <ele>9.2699</ele>
        <time>2011-01-21T20:41:12Z</time>
      </trkpt>
      <trkpt lat="59.4909692" lon="17.8795796">
        <ele>9.2699</ele>
        <time>2011-01-21T20:41:16Z</time>
      </trkpt>
      <trkpt lat="59.4908318" lon="17.8794505">
        <ele>8.78918</ele>
        <time>2011-01-21T20:41:21Z</time>
      </trkpt>
      <trkpt lat="59.490805" lon="17.8794269">
        <ele>9.2699</ele>
        <time>2011-01-21T20:41:22Z</time>
      </trkpt>
      <trkpt lat="59.4907277" lon="17.8793769">
        <ele>9.2699</ele>
        <time>2011-01-21T20:41:25Z</time>
      </trkpt>
      <trkpt lat="59.4906034" lon="17.8793134">
        <ele>9.2699</ele>
        <time>2011-01-21T20:41:29Z</time>
      </trkpt>
      <trkpt lat="59.4904957" lon="17.8792471">
        <ele>9.75061</ele>
        <time>2011-01-21T20:41:33Z</time>
      </trkpt>
      <trkpt lat="59.4903836" lon="17.8792049">
        <ele>9.2699</ele>
        <time>2011-01-21T20:41:37Z</time>
      </trkpt>
      <trkpt lat="59.4902219" lon="17.8791919">
        <ele>8.30859</ele>
        <time>2011-01-21T20:41:42Z</time>
      </trkpt>
      <trkpt lat="59.4901299" lon="17.8791926">
        <ele>7.82788</ele>
        <time>2011-01-21T20:41:45Z</time>
      </trkpt>
      <trkpt lat="59.4900103" lon="17.8791801">
        <ele>7.82788</ele>
        <time>2011-01-21T20:41:49Z</time>
      </trkpt>
      <trkpt lat="59.4899045" lon="17.8791647">
        <ele>7.34717</ele>
        <time>2011-01-21T20:41:53Z</time>
      </trkpt>
      <trkpt lat="59.489768" lon="17.8791341">
        <ele>7.34717</ele>
        <time>2011-01-21T20:41:58Z</time>
      </trkpt>
      <trkpt lat="59.4896363" lon="17.8791077">
        <ele>6.86646</ele>
        <time>2011-01-21T20:42:03Z</time>
      </trkpt>
      <trkpt lat="59.4894974" lon="17.8790801">
        <ele>7.34717</ele>
        <time>2011-01-21T20:42:09Z</time>
      </trkpt>
      <trkpt lat="59.4894032" lon="17.8790826">
        <ele>7.34717</ele>
        <time>2011-01-21T20:42:13Z</time>
      </trkpt>
      <trkpt lat="59.4892786" lon="17.87907">
        <ele>8.30859</ele>
        <time>2011-01-21T20:42:18Z</time>
      </trkpt>
      <trkpt lat="59.4891493" lon="17.8790878">
        <ele>8.30859</ele>
        <time>2011-01-21T20:42:23Z</time>
      </trkpt>
      <trkpt lat="59.4890432" lon="17.8791077">
        <ele>8.30859</ele>
        <time>2011-01-21T20:42:27Z</time>
      </trkpt>
      <trkpt lat="59.4889416" lon="17.8790953">
        <ele>8.78918</ele>
        <time>2011-01-21T20:42:31Z</time>
      </trkpt>
      <trkpt lat="59.4889044" lon="17.8789315">
        <ele>8.78918</ele>
        <time>2011-01-21T20:42:35Z</time>
      </trkpt>
      <trkpt lat="59.4888623" lon="17.8787099">
        <ele>7.82788</ele>
        <time>2011-01-21T20:42:40Z</time>
      </trkpt>
      <trkpt lat="59.4887857" lon="17.8786047">
        <ele>8.30859</ele>
        <time>2011-01-21T20:42:44Z</time>
      </trkpt>
      <trkpt lat="59.4886815" lon="17.8785163">
        <ele>7.82788</ele>
        <time>2011-01-21T20:42:48Z</time>
      </trkpt>
      <trkpt lat="59.4885909" lon="17.8784347">
        <ele>9.2699</ele>
        <time>2011-01-21T20:42:52Z</time>
      </trkpt>
      <trkpt lat="59.4884982" lon="17.8782969">
        <ele>10.2312</ele>
        <time>2011-01-21T20:42:56Z</time>
      </trkpt>
      <trkpt lat="59.4883902" lon="17.8780194">
        <ele>10.2312</ele>
        <time>2011-01-21T20:43:02Z</time>
      </trkpt>
      <trkpt lat="59.4883525" lon="17.8777811">
        <ele>10.7118</ele>
        <time>2011-01-21T20:43:06Z</time>
      </trkpt>
      <trkpt lat="59.4883494" lon="17.8775681">
        <ele>12.1538</ele>
        <time>2011-01-21T20:43:10Z</time>
      </trkpt>
      <trkpt lat="59.4883542" lon="17.8774293">
        <ele>12.6344</ele>
        <time>2011-01-21T20:43:13Z</time>
      </trkpt>
      <trkpt lat="59.4883697" lon="17.8772323">
        <ele>13.1151</ele>
        <time>2011-01-21T20:43:17Z</time>
      </trkpt>
      <trkpt lat="59.4883996" lon="17.8770231">
        <ele>13.1151</ele>
        <time>2011-01-21T20:43:21Z</time>
      </trkpt>
      <trkpt lat="59.4884058" lon="17.8769778">
        <ele>13.1151</ele>
        <time>2011-01-21T20:43:22Z</time>
      </trkpt>
      <trkpt lat="59.488424" lon="17.8768874">
        <ele>12.1538</ele>
        <time>2011-01-21T20:43:48Z</time>
      </trkpt>
      <trkpt lat="59.4884272" lon="17.8768778">
        <ele>11.6732</ele>
        <time>2011-01-21T20:43:49Z</time>
      </trkpt>
      <trkpt lat="59.4884469" lon="17.8768384">
        <ele>11.6732</ele>
        <time>2011-01-21T20:43:51Z</time>
      </trkpt>
      <trkpt lat="59.4885842" lon="17.8767742">
        <ele>10.7118</ele>
        <time>2011-01-21T20:43:57Z</time>
      </trkpt>
      <trkpt lat="59.4887443" lon="17.8766623">
        <ele>10.7118</ele>
        <time>2011-01-21T20:44:02Z</time>
      </trkpt>
      <trkpt lat="59.488895" lon="17.8765">
        <ele>9.75061</ele>
        <time>2011-01-21T20:44:07Z</time>
      </trkpt>
      <trkpt lat="59.4890228" lon="17.8764317">
        <ele>8.30859</ele>
        <time>2011-01-21T20:44:11Z</time>
      </trkpt>
      <trkpt lat="59.4892017" lon="17.876598">
        <ele>5.90527</ele>
        <time>2011-01-21T20:44:16Z</time>
      </trkpt>
      <trkpt lat="59.4893467" lon="17.8767863">
        <ele>5.42456</ele>
        <time>2011-01-21T20:44:20Z</time>
      </trkpt>
      <trkpt lat="59.4893839" lon="17.8768191">
        <ele>5.42456</ele>
        <time>2011-01-21T20:44:21Z</time>
      </trkpt>
      <trkpt lat="59.4895265" lon="17.8769372">
        <ele>6.86646</ele>
        <time>2011-01-21T20:44:25Z</time>
      </trkpt>
      <trkpt lat="59.4895678" lon="17.8769585">
        <ele>7.34717</ele>
        <time>2011-01-21T20:44:26Z</time>
      </trkpt>
      <trkpt lat="59.4897768" lon="17.877022">
        <ele>8.30859</ele>
        <time>2011-01-21T20:44:32Z</time>
      </trkpt>
      <trkpt lat="59.4899047" lon="17.8769961">
        <ele>8.30859</ele>
        <time>2011-01-21T20:44:36Z</time>
      </trkpt>
      <trkpt lat="59.4900755" lon="17.8769403">
        <ele>9.2699</ele>
        <time>2011-01-21T20:44:40Z</time>
      </trkpt>
      <trkpt lat="59.4902138" lon="17.8767983">
        <ele>9.75061</ele>
        <time>2011-01-21T20:44:44Z</time>
      </trkpt>
      <trkpt lat="59.490323" lon="17.8765814">
        <ele>10.2312</ele>
        <time>2011-01-21T20:44:48Z</time>
      </trkpt>
      <trkpt lat="59.4904862" lon="17.8764109">
        <ele>9.2699</ele>
        <time>2011-01-21T20:44:52Z</time>
      </trkpt>
      <trkpt lat="59.4906376" lon="17.8763657">
        <ele>7.82788</ele>
        <time>2011-01-21T20:44:56Z</time>
      </trkpt>
      <trkpt lat="59.4907493" lon="17.8763995">
        <ele>6.38586</ele>
        <time>2011-01-21T20:44:59Z</time>
      </trkpt>
      <trkpt lat="59.490924" lon="17.8765306">
        <ele>6.38586</ele>
        <time>2011-01-21T20:45:04Z</time>
      </trkpt>
      <trkpt lat="59.4910691" lon="17.8766901">
        <ele>5.42456</ele>
        <time>2011-01-21T20:45:08Z</time>
      </trkpt>
      <trkpt lat="59.4912355" lon="17.8768464">
        <ele>4.46326</ele>
        <time>2011-01-21T20:45:12Z</time>
      </trkpt>
      <trkpt lat="59.4914644" lon="17.8770041">
        <ele>5.42456</ele>
        <time>2011-01-21T20:45:17Z</time>
      </trkpt>
      <trkpt lat="59.4916941" lon="17.8770247">
        <ele>5.90527</ele>
        <time>2011-01-21T20:45:22Z</time>
      </trkpt>
      <trkpt lat="59.4918149" lon="17.8769916">
        <ele>6.86646</ele>
        <time>2011-01-21T20:45:25Z</time>
      </trkpt>
      <trkpt lat="59.4919322" lon="17.8770004">
        <ele>6.86646</ele>
        <time>2011-01-21T20:45:28Z</time>
      </trkpt>
      <trkpt lat="59.4920611" lon="17.8770502">
        <ele>6.38586</ele>
        <time>2011-01-21T20:45:31Z</time>
      </trkpt>
      <trkpt lat="59.4922957" lon="17.8771863">
        <ele>6.38586</ele>
        <time>2011-01-21T20:45:37Z</time>
      </trkpt>
      <trkpt lat="59.4925117" lon="17.8772661">
        <ele>8.78918</ele>
        <time>2011-01-21T20:45:42Z</time>
      </trkpt>
      <trkpt lat="59.4927169" lon="17.8773848">
        <ele>8.78918</ele>
        <time>2011-01-21T20:45:47Z</time>
      </trkpt>
      <trkpt lat="59.4929744" lon="17.8775526">
        <ele>8.30859</ele>
        <time>2011-01-21T20:45:53Z</time>
      </trkpt>
      <trkpt lat="59.493063" lon="17.8776038">
        <ele>8.30859</ele>
        <time>2011-01-21T20:45:55Z</time>
      </trkpt>
      <trkpt lat="59.4932012" lon="17.8776955">
        <ele>8.30859</ele>
        <time>2011-01-21T20:45:58Z</time>
      </trkpt>
      <trkpt lat="59.4933831" lon="17.8778213">
        <ele>7.34717</ele>
        <time>2011-01-21T20:46:02Z</time>
      </trkpt>
      <trkpt lat="59.4936472" lon="17.8780453">
        <ele>4.46326</ele>
        <time>2011-01-21T20:46:08Z</time>
      </trkpt>
      <trkpt lat="59.4936958" lon="17.8780671">
        <ele>3.98267</ele>
        <time>2011-01-21T20:46:09Z</time>
      </trkpt>
      <trkpt lat="59.4937998" lon="17.8780896">
        <ele>2.54065</ele>
        <time>2011-01-21T20:46:11Z</time>
      </trkpt>
      <trkpt lat="59.4940632" lon="17.8779816">
        <ele>1.09863</ele>
        <time>2011-01-21T20:46:16Z</time>
      </trkpt>
      <trkpt lat="59.4942827" lon="17.8776697">
        <ele>0.137451</ele>
        <time>2011-01-21T20:46:22Z</time>
      </trkpt>
      <trkpt lat="59.4944029" lon="17.8775056">
        <ele>0</ele>
        <time>2011-01-21T20:46:26Z</time>
      </trkpt>
      <trkpt lat="59.4945087" lon="17.8774246">
        <ele>0</ele>
        <time>2011-01-21T20:46:29Z</time>
      </trkpt>
      <trkpt lat="59.494734" lon="17.877423">
        <ele>0</ele>
        <time>2011-01-21T20:46:35Z</time>
      </trkpt>
      <trkpt lat="59.4948867" lon="17.8774407">
        <ele>0</ele>
        <time>2011-01-21T20:46:39Z</time>
      </trkpt>
      <trkpt lat="59.4950562" lon="17.8774067">
        <ele>0</ele>
        <time>2011-01-21T20:46:44Z</time>
      </trkpt>
      <trkpt lat="59.4952075" lon="17.8773367">
        <ele>1.57935</ele>
        <time>2011-01-21T20:46:49Z</time>
      </trkpt>
      <trkpt lat="59.4953255" lon="17.8772123">
        <ele>3.50195</ele>
        <time>2011-01-21T20:46:54Z</time>
      </trkpt>
      <trkpt lat="59.4954199" lon="17.8770673">
        <ele>4.46326</ele>
        <time>2011-01-21T20:46:58Z</time>
      </trkpt>
      <trkpt lat="59.4954714" lon="17.8768399">
        <ele>4.94385</ele>
        <time>2011-01-21T20:47:03Z</time>
      </trkpt>
      <trkpt lat="59.4954919" lon="17.8766366">
        <ele>5.90527</ele>
        <time>2011-01-21T20:47:07Z</time>
      </trkpt>
      <trkpt lat="59.4954712" lon="17.8763852">
        <ele>6.38586</ele>
        <time>2011-01-21T20:47:12Z</time>
      </trkpt>
      <trkpt lat="59.4954626" lon="17.8763347">
        <ele>6.86646</ele>
        <time>2011-01-21T20:47:13Z</time>
      </trkpt>
      <trkpt lat="59.4954042" lon="17.8761525">
        <ele>8.78918</ele>
        <time>2011-01-21T20:47:18Z</time>
      </trkpt>
      <trkpt lat="59.4953682" lon="17.8759976">
        <ele>10.2312</ele>
        <time>2011-01-21T20:47:23Z</time>
      </trkpt>
      <trkpt lat="59.4953195" lon="17.8759038">
        <ele>9.75061</ele>
        <time>2011-01-21T20:47:25Z</time>
      </trkpt>
      <trkpt lat="59.4950061" lon="17.8755133">
        <ele>6.38586</ele>
        <time>2011-01-21T20:47:30Z</time>
      </trkpt>
      <trkpt lat="59.4947501" lon="17.8753597">
        <ele>6.38586</ele>
        <time>2011-01-21T20:47:34Z</time>
      </trkpt>
      <trkpt lat="59.4946556" lon="17.8753163">
        <ele>6.86646</ele>
        <time>2011-01-21T20:47:36Z</time>
      </trkpt>
      <trkpt lat="59.4945214" lon="17.8752693">
        <ele>6.86646</ele>
        <time>2011-01-21T20:47:40Z</time>
      </trkpt>
      <trkpt lat="59.4944073" lon="17.8752687">
        <ele>5.90527</ele>
        <time>2011-01-21T20:47:44Z</time>
      </trkpt>
      <trkpt lat="59.4943802" lon="17.8752755">
        <ele>5.42456</ele>
        <time>2011-01-21T20:47:45Z</time>
      </trkpt>
      <trkpt lat="59.4941994" lon="17.8753367">
        <ele>3.50195</ele>
        <time>2011-01-21T20:47:51Z</time>
      </trkpt>
      <trkpt lat="59.4940628" lon="17.8753809">
        <ele>3.50195</ele>
        <time>2011-01-21T20:47:56Z</time>
      </trkpt>
      <trkpt lat="59.4939539" lon="17.8754961">
        <ele>4.94385</ele>
        <time>2011-01-21T20:48:00Z</time>
      </trkpt>
      <trkpt lat="59.4938519" lon="17.8756179">
        <ele>6.38586</ele>
        <time>2011-01-21T20:48:04Z</time>
      </trkpt>
      <trkpt lat="59.4937618" lon="17.875737">
        <ele>8.30859</ele>
        <time>2011-01-21T20:48:08Z</time>
      </trkpt>
      <trkpt lat="59.4936388" lon="17.8758927">
        <ele>10.2312</ele>
        <time>2011-01-21T20:48:13Z</time>
      </trkpt>
      <trkpt lat="59.4935181" lon="17.8760228">
        <ele>11.1925</ele>
        <time>2011-01-21T20:48:18Z</time>
      </trkpt>
      <trkpt lat="59.4933954" lon="17.8761559">
        <ele>11.6732</ele>
        <time>2011-01-21T20:48:23Z</time>
      </trkpt>
      <trkpt lat="59.493267" lon="17.8762419">
        <ele>10.2312</ele>
        <time>2011-01-21T20:48:28Z</time>
      </trkpt>
      <trkpt lat="59.4931681" lon="17.8762647">
        <ele>9.2699</ele>
        <time>2011-01-21T20:48:32Z</time>
      </trkpt>
      <trkpt lat="59.4930449" lon="17.8762776">
        <ele>8.30859</ele>
        <time>2011-01-21T20:48:37Z</time>
      </trkpt>
      <trkpt lat="59.4928977" lon="17.8763111">
        <ele>7.82788</ele>
        <time>2011-01-21T20:48:43Z</time>
      </trkpt>
      <trkpt lat="59.4927935" lon="17.8763538">
        <ele>8.30859</ele>
        <time>2011-01-21T20:48:47Z</time>
      </trkpt>
      <trkpt lat="59.4926848" lon="17.8764123">
        <ele>9.2699</ele>
        <time>2011-01-21T20:48:51Z</time>
      </trkpt>
      <trkpt lat="59.4925344" lon="17.8765104">
        <ele>10.2312</ele>
        <time>2011-01-21T20:48:56Z</time>
      </trkpt>
      <trkpt lat="59.4924128" lon="17.8766305">
        <ele>11.6732</ele>
        <time>2011-01-21T20:49:00Z</time>
      </trkpt>
      <trkpt lat="59.492242" lon="17.8767715">
        <ele>11.6732</ele>
        <time>2011-01-21T20:49:05Z</time>
      </trkpt>
      <trkpt lat="59.4921166" lon="17.8768889">
        <ele>11.1925</ele>
        <time>2011-01-21T20:49:09Z</time>
      </trkpt>
      <trkpt lat="59.491998" lon="17.8770143">
        <ele>11.6732</ele>
        <time>2011-01-21T20:49:13Z</time>
      </trkpt>
      <trkpt lat="59.4918818" lon="17.8770813">
        <ele>11.6732</ele>
        <time>2011-01-21T20:49:17Z</time>
      </trkpt>
      <trkpt lat="59.4917599" lon="17.8771007">
        <ele>11.6732</ele>
        <time>2011-01-21T20:49:21Z</time>
      </trkpt>
      <trkpt lat="59.4916247" lon="17.8771004">
        <ele>10.7118</ele>
        <time>2011-01-21T20:49:25Z</time>
      </trkpt>
      <trkpt lat="59.4914641" lon="17.8770382">
        <ele>11.1925</ele>
        <time>2011-01-21T20:49:30Z</time>
      </trkpt>
      <trkpt lat="59.4913543" lon="17.8769824">
        <ele>11.1925</ele>
        <time>2011-01-21T20:49:34Z</time>
      </trkpt>
      <trkpt lat="59.4912442" lon="17.8769055">
        <ele>11.6732</ele>
        <time>2011-01-21T20:49:38Z</time>
      </trkpt>
      <trkpt lat="59.4911327" lon="17.8767996">
        <ele>12.6344</ele>
        <time>2011-01-21T20:49:42Z</time>
      </trkpt>
      <trkpt lat="59.4910208" lon="17.8766766">
        <ele>13.1151</ele>
        <time>2011-01-21T20:49:47Z</time>
      </trkpt>
      <trkpt lat="59.490909" lon="17.8765618">
        <ele>13.1151</ele>
        <time>2011-01-21T20:49:52Z</time>
      </trkpt>
      <trkpt lat="59.4907807" lon="17.8764938">
        <ele>12.6344</ele>
        <time>2011-01-21T20:49:56Z</time>
      </trkpt>
      <trkpt lat="59.4906644" lon="17.8764539">
        <ele>12.1538</ele>
        <time>2011-01-21T20:49:59Z</time>
      </trkpt>
      <trkpt lat="59.4905055" lon="17.8764212">
        <ele>12.1538</ele>
        <time>2011-01-21T20:50:04Z</time>
      </trkpt>
      <trkpt lat="59.4904724" lon="17.8764111">
        <ele>12.1538</ele>
        <time>2011-01-21T20:50:05Z</time>
      </trkpt>
      <trkpt lat="59.4903562" lon="17.8763824">
        <ele>12.6344</ele>
        <time>2011-01-21T20:50:09Z</time>
      </trkpt>
      <trkpt lat="59.4902377" lon="17.8763841">
        <ele>13.5958</ele>
        <time>2011-01-21T20:50:13Z</time>
      </trkpt>
      <trkpt lat="59.4901252" lon="17.8764484">
        <ele>14.0764</ele>
        <time>2011-01-21T20:50:17Z</time>
      </trkpt>
      <trkpt lat="59.490017" lon="17.8765229">
        <ele>14.557</ele>
        <time>2011-01-21T20:50:21Z</time>
      </trkpt>
      <trkpt lat="59.4899148" lon="17.8765522">
        <ele>15.0377</ele>
        <time>2011-01-21T20:50:25Z</time>
      </trkpt>
      <trkpt lat="59.4898191" lon="17.8765083">
        <ele>15.0377</ele>
        <time>2011-01-21T20:50:29Z</time>
      </trkpt>
      <trkpt lat="59.4897373" lon="17.8764011">
        <ele>15.0377</ele>
        <time>2011-01-21T20:50:33Z</time>
      </trkpt>
      <trkpt lat="59.4896799" lon="17.8763067">
        <ele>15.0377</ele>
        <time>2011-01-21T20:50:36Z</time>
      </trkpt>
      <trkpt lat="59.4896026" lon="17.8761556">
        <ele>15.0377</ele>
        <time>2011-01-21T20:50:40Z</time>
      </trkpt>
      <trkpt lat="59.4895413" lon="17.8759969">
        <ele>15.0377</ele>
        <time>2011-01-21T20:50:44Z</time>
      </trkpt>
      <trkpt lat="59.4894731" lon="17.8758185">
        <ele>14.557</ele>
        <time>2011-01-21T20:50:48Z</time>
      </trkpt>
      <trkpt lat="59.4894017" lon="17.8756091">
        <ele>14.0764</ele>
        <time>2011-01-21T20:50:52Z</time>
      </trkpt>
      <trkpt lat="59.4893658" lon="17.8754998">
        <ele>14.0764</ele>
        <time>2011-01-21T20:50:54Z</time>
      </trkpt>
      <trkpt lat="59.4893284" lon="17.8754071">
        <ele>14.557</ele>
        <time>2011-01-21T20:50:56Z</time>
      </trkpt>
      <trkpt lat="59.4892196" lon="17.8751019">
        <ele>14.557</ele>
        <time>2011-01-21T20:51:02Z</time>
      </trkpt>
      <trkpt lat="59.4891684" lon="17.8749251">
        <ele>15.0377</ele>
        <time>2011-01-21T20:51:06Z</time>
      </trkpt>
      <trkpt lat="59.4891062" lon="17.8746894">
        <ele>15.0377</ele>
        <time>2011-01-21T20:51:11Z</time>
      </trkpt>
      <trkpt lat="59.4890813" lon="17.8744964">
        <ele>14.557</ele>
        <time>2011-01-21T20:51:15Z</time>
      </trkpt>
      <trkpt lat="59.4890746" lon="17.8742714">
        <ele>14.0764</ele>
        <time>2011-01-21T20:51:20Z</time>
      </trkpt>
      <trkpt lat="59.4890787" lon="17.8740279">
        <ele>14.0764</ele>
        <time>2011-01-21T20:51:25Z</time>
      </trkpt>
      <trkpt lat="59.4890922" lon="17.8737789">
        <ele>15.0377</ele>
        <time>2011-01-21T20:51:31Z</time>
      </trkpt>
      <trkpt lat="59.4891057" lon="17.8736026">
        <ele>15.5184</ele>
        <time>2011-01-21T20:51:35Z</time>
      </trkpt>
      <trkpt lat="59.4891254" lon="17.8733714">
        <ele>16.4797</ele>
        <time>2011-01-21T20:51:40Z</time>
      </trkpt>
      <trkpt lat="59.4891499" lon="17.8731739">
        <ele>17.4412</ele>
        <time>2011-01-21T20:51:45Z</time>
      </trkpt>
      <trkpt lat="59.4891887" lon="17.8729435">
        <ele>18.4023</ele>
        <time>2011-01-21T20:51:50Z</time>
      </trkpt>
      <trkpt lat="59.4892089" lon="17.8727652">
        <ele>18.8831</ele>
        <time>2011-01-21T20:51:54Z</time>
      </trkpt>
      <trkpt lat="59.4892145" lon="17.8725617">
        <ele>19.3638</ele>
        <time>2011-01-21T20:51:58Z</time>
      </trkpt>
      <trkpt lat="59.4891927" lon="17.872329">
        <ele>19.8444</ele>
        <time>2011-01-21T20:52:03Z</time>
      </trkpt>
      <trkpt lat="59.4891529" lon="17.8720763">
        <ele>20.8057</ele>
        <time>2011-01-21T20:52:09Z</time>
      </trkpt>
      <trkpt lat="59.489111" lon="17.8718555">
        <ele>21.767</ele>
        <time>2011-01-21T20:52:14Z</time>
      </trkpt>
      <trkpt lat="59.4890588" lon="17.8715933">
        <ele>22.2476</ele>
        <time>2011-01-21T20:52:20Z</time>
      </trkpt>
      <trkpt lat="59.4890054" lon="17.8713349">
        <ele>22.7283</ele>
        <time>2011-01-21T20:52:26Z</time>
      </trkpt>
      <trkpt lat="59.4889639" lon="17.8711037">
        <ele>23.209</ele>
        <time>2011-01-21T20:52:31Z</time>
      </trkpt>
      <trkpt lat="59.4889243" lon="17.870889">
        <ele>23.6896</ele>
        <time>2011-01-21T20:52:36Z</time>
      </trkpt>
      <trkpt lat="59.488898" lon="17.8706197">
        <ele>23.6896</ele>
        <time>2011-01-21T20:52:42Z</time>
      </trkpt>
      <trkpt lat="59.4888893" lon="17.8704206">
        <ele>23.209</ele>
        <time>2011-01-21T20:52:46Z</time>
      </trkpt>
      <trkpt lat="59.488895" lon="17.8702563">
        <ele>23.209</ele>
        <time>2011-01-21T20:52:49Z</time>
      </trkpt>
      <trkpt lat="59.4889339" lon="17.8699663">
        <ele>23.6896</ele>
        <time>2011-01-21T20:52:54Z</time>
      </trkpt>
      <trkpt lat="59.4889772" lon="17.8697804">
        <ele>23.6896</ele>
        <time>2011-01-21T20:52:58Z</time>
      </trkpt>
      <trkpt lat="59.48907" lon="17.8695806">
        <ele>24.651</ele>
        <time>2011-01-21T20:53:04Z</time>
      </trkpt>
      <trkpt lat="59.489167" lon="17.8694561">
        <ele>24.651</ele>
        <time>2011-01-21T20:53:08Z</time>
      </trkpt>
      <trkpt lat="59.4892783" lon="17.8693783">
        <ele>24.1703</ele>
        <time>2011-01-21T20:53:12Z</time>
      </trkpt>
      <trkpt lat="59.4893947" lon="17.8693541">
        <ele>24.1703</ele>
        <time>2011-01-21T20:53:16Z</time>
      </trkpt>
      <trkpt lat="59.4895099" lon="17.8692666">
        <ele>24.1703</ele>
        <time>2011-01-21T20:53:20Z</time>
      </trkpt>
      <trkpt lat="59.4896286" lon="17.8691856">
        <ele>24.651</ele>
        <time>2011-01-21T20:53:24Z</time>
      </trkpt>
      <trkpt lat="59.4897573" lon="17.8690759">
        <ele>25.1317</ele>
        <time>2011-01-21T20:53:28Z</time>
      </trkpt>
      <trkpt lat="59.4898384" lon="17.869011">
        <ele>24.651</ele>
        <time>2011-01-21T20:53:31Z</time>
      </trkpt>
      <trkpt lat="59.4899669" lon="17.8689097">
        <ele>24.651</ele>
        <time>2011-01-21T20:53:36Z</time>
      </trkpt>
      <trkpt lat="59.4900738" lon="17.8688475">
        <ele>24.1703</ele>
        <time>2011-01-21T20:53:40Z</time>
      </trkpt>
      <trkpt lat="59.4901831" lon="17.8687656">
        <ele>24.1703</ele>
        <time>2011-01-21T20:53:45Z</time>
      </trkpt>
      <trkpt lat="59.490303" lon="17.8687221">
        <ele>25.6123</ele>
        <time>2011-01-21T20:53:50Z</time>
      </trkpt>
      <trkpt lat="59.4904059" lon="17.8687118">
        <ele>26.0929</ele>
        <time>2011-01-21T20:53:55Z</time>
      </trkpt>
      <trkpt lat="59.4905194" lon="17.8687101">
        <ele>26.5736</ele>
        <time>2011-01-21T20:54:00Z</time>
      </trkpt>
      <trkpt lat="59.4906282" lon="17.8687088">
        <ele>25.6123</ele>
        <time>2011-01-21T20:54:05Z</time>
      </trkpt>
      <trkpt lat="59.4907602" lon="17.8687535">
        <ele>25.1317</ele>
        <time>2011-01-21T20:54:11Z</time>
      </trkpt>
      <trkpt lat="59.4908633" lon="17.8687852">
        <ele>26.0929</ele>
        <time>2011-01-21T20:54:16Z</time>
      </trkpt>
      <trkpt lat="59.4909972" lon="17.8688362">
        <ele>26.5736</ele>
        <time>2011-01-21T20:54:22Z</time>
      </trkpt>
      <trkpt lat="59.4911116" lon="17.8689032">
        <ele>27.0543</ele>
        <time>2011-01-21T20:54:26Z</time>
      </trkpt>
      <trkpt lat="59.4911904" lon="17.8689431">
        <ele>27.5349</ele>
        <time>2011-01-21T20:54:28Z</time>
      </trkpt>
      <trkpt lat="59.4913379" lon="17.8690641">
        <ele>28.9769</ele>
        <time>2011-01-21T20:54:33Z</time>
      </trkpt>
      <trkpt lat="59.4914598" lon="17.8692324">
        <ele>29.4575</ele>
        <time>2011-01-21T20:54:39Z</time>
      </trkpt>
      <trkpt lat="59.491544" lon="17.8693437">
        <ele>30.4188</ele>
        <time>2011-01-21T20:54:45Z</time>
      </trkpt>
      <trkpt lat="59.4916213" lon="17.8694142">
        <ele>30.8995</ele>
        <time>2011-01-21T20:54:50Z</time>
      </trkpt>
      <trkpt lat="59.4917509" lon="17.869485">
        <ele>32.3416</ele>
        <time>2011-01-21T20:54:56Z</time>
      </trkpt>
      <trkpt lat="59.4918569" lon="17.8695007">
        <ele>33.3029</ele>
        <time>2011-01-21T20:55:00Z</time>
      </trkpt>
      <trkpt lat="59.4919098" lon="17.8694839">
        <ele>33.7834</ele>
        <time>2011-01-21T20:55:02Z</time>
      </trkpt>
      <trkpt lat="59.4920523" lon="17.8693785">
        <ele>34.7449</ele>
        <time>2011-01-21T20:55:07Z</time>
      </trkpt>
      <trkpt lat="59.4921666" lon="17.8692764">
        <ele>34.7449</ele>
        <time>2011-01-21T20:55:11Z</time>
      </trkpt>
      <trkpt lat="59.4921919" lon="17.8692504">
        <ele>35.2255</ele>
        <time>2011-01-21T20:55:12Z</time>
      </trkpt>
      <trkpt lat="59.492258" lon="17.8689724">
        <ele>35.2255</ele>
        <time>2011-01-21T20:55:18Z</time>
      </trkpt>
      <trkpt lat="59.4921781" lon="17.8687155">
        <ele>34.7449</ele>
        <time>2011-01-21T20:55:22Z</time>
      </trkpt>
      <trkpt lat="59.4920814" lon="17.8686609">
        <ele>34.2642</ele>
        <time>2011-01-21T20:55:25Z</time>
      </trkpt>
      <trkpt lat="59.4919408" lon="17.8687045">
        <ele>34.2642</ele>
        <time>2011-01-21T20:55:29Z</time>
      </trkpt>
      <trkpt lat="59.4917868" lon="17.8686989">
        <ele>33.3029</ele>
        <time>2011-01-21T20:55:33Z</time>
      </trkpt>
      <trkpt lat="59.4916604" lon="17.8685941">
        <ele>31.8607</ele>
        <time>2011-01-21T20:55:36Z</time>
      </trkpt>
      <trkpt lat="59.4915332" lon="17.8684103">
        <ele>30.4188</ele>
        <time>2011-01-21T20:55:39Z</time>
      </trkpt>
      <trkpt lat="59.4913818" lon="17.8682557">
        <ele>30.4188</ele>
        <time>2011-01-21T20:55:42Z</time>
      </trkpt>
      <trkpt lat="59.491081" lon="17.867805">
        <ele>28.0155</ele>
        <time>2011-01-21T20:55:49Z</time>
      </trkpt>
      <trkpt lat="59.4909437" lon="17.8676747">
        <ele>28.0155</ele>
        <time>2011-01-21T20:55:52Z</time>
      </trkpt>
      <trkpt lat="59.4907608" lon="17.8676042">
        <ele>26.5736</ele>
        <time>2011-01-21T20:55:56Z</time>
      </trkpt>
      <trkpt lat="59.4905863" lon="17.8676275">
        <ele>25.1317</ele>
        <time>2011-01-21T20:56:00Z</time>
      </trkpt>
      <trkpt lat="59.4905139" lon="17.8676857">
        <ele>24.1703</ele>
        <time>2011-01-21T20:56:02Z</time>
      </trkpt>
      <trkpt lat="59.4903755" lon="17.8678424">
        <ele>22.7283</ele>
        <time>2011-01-21T20:56:06Z</time>
      </trkpt>
      <trkpt lat="59.4902532" lon="17.8679871">
        <ele>22.7283</ele>
        <time>2011-01-21T20:56:10Z</time>
      </trkpt>
      <trkpt lat="59.4901864" lon="17.8680647">
        <ele>23.209</ele>
        <time>2011-01-21T20:56:12Z</time>
      </trkpt>
      <trkpt lat="59.4900305" lon="17.8681523">
        <ele>23.209</ele>
        <time>2011-01-21T20:56:16Z</time>
      </trkpt>
      <trkpt lat="59.4898759" lon="17.8680797">
        <ele>23.209</ele>
        <time>2011-01-21T20:56:20Z</time>
      </trkpt>
      <trkpt lat="59.4898141" lon="17.8679727">
        <ele>23.209</ele>
        <time>2011-01-21T20:56:22Z</time>
      </trkpt>
      <trkpt lat="59.4896573" lon="17.8677844">
        <ele>23.209</ele>
        <time>2011-01-21T20:56:27Z</time>
      </trkpt>
      <trkpt lat="59.4894943" lon="17.8677203">
        <ele>23.209</ele>
        <time>2011-01-21T20:56:32Z</time>
      </trkpt>
      <trkpt lat="59.4893343" lon="17.8677353">
        <ele>22.7283</ele>
        <time>2011-01-21T20:56:36Z</time>
      </trkpt>
      <trkpt lat="59.4891808" lon="17.8677421">
        <ele>23.6896</ele>
        <time>2011-01-21T20:56:40Z</time>
      </trkpt>
      <trkpt lat="59.4890386" lon="17.8678141">
        <ele>24.651</ele>
        <time>2011-01-21T20:56:44Z</time>
      </trkpt>
      <trkpt lat="59.4889101" lon="17.8679005">
        <ele>25.6123</ele>
        <time>2011-01-21T20:56:48Z</time>
      </trkpt>
      <trkpt lat="59.48872" lon="17.8678937">
        <ele>24.651</ele>
        <time>2011-01-21T20:56:53Z</time>
      </trkpt>
      <trkpt lat="59.4885289" lon="17.8677414">
        <ele>23.209</ele>
        <time>2011-01-21T20:56:58Z</time>
      </trkpt>
      <trkpt lat="59.4883578" lon="17.8676746">
        <ele>24.651</ele>
        <time>2011-01-21T20:57:03Z</time>
      </trkpt>
      <trkpt lat="59.4881833" lon="17.8676773">
        <ele>25.1317</ele>
        <time>2011-01-21T20:57:08Z</time>
      </trkpt>
      <trkpt lat="59.488015" lon="17.8677448">
        <ele>25.6123</ele>
        <time>2011-01-21T20:57:13Z</time>
      </trkpt>
      <trkpt lat="59.4878947" lon="17.8678735">
        <ele>26.0929</ele>
        <time>2011-01-21T20:57:17Z</time>
      </trkpt>
      <trkpt lat="59.4877793" lon="17.8679639">
        <ele>26.0929</ele>
        <time>2011-01-21T20:57:21Z</time>
      </trkpt>
      <trkpt lat="59.4876465" lon="17.8680327">
        <ele>26.0929</ele>
        <time>2011-01-21T20:57:25Z</time>
      </trkpt>
      <trkpt lat="59.4875579" lon="17.8682814">
        <ele>26.0929</ele>
        <time>2011-01-21T20:57:30Z</time>
      </trkpt>
      <trkpt lat="59.4875321" lon="17.8685822">
        <ele>26.5736</ele>
        <time>2011-01-21T20:57:35Z</time>
      </trkpt>
      <trkpt lat="59.4875176" lon="17.8688272">
        <ele>27.0543</ele>
        <time>2011-01-21T20:57:39Z</time>
      </trkpt>
      <trkpt lat="59.4874871" lon="17.8691712">
        <ele>27.0543</ele>
        <time>2011-01-21T20:57:44Z</time>
      </trkpt>
      <trkpt lat="59.4874682" lon="17.869358">
        <ele>27.5349</ele>
        <time>2011-01-21T20:57:47Z</time>
      </trkpt>
      <trkpt lat="59.4874321" lon="17.86957">
        <ele>28.0155</ele>
        <time>2011-01-21T20:57:51Z</time>
      </trkpt>
      <trkpt lat="59.4873897" lon="17.8698234">
        <ele>28.0155</ele>
        <time>2011-01-21T20:57:56Z</time>
      </trkpt>
      <trkpt lat="59.4873547" lon="17.8701674">
        <ele>27.0543</ele>
        <time>2011-01-21T20:58:01Z</time>
      </trkpt>
      <trkpt lat="59.4873139" lon="17.8705239">
        <ele>26.0929</ele>
        <time>2011-01-21T20:58:05Z</time>
      </trkpt>
      <trkpt lat="59.487331" lon="17.8707209">
        <ele>26.0929</ele>
        <time>2011-01-21T20:58:08Z</time>
      </trkpt>
      <trkpt lat="59.4874491" lon="17.8708273">
        <ele>24.651</ele>
        <time>2011-01-21T20:58:12Z</time>
      </trkpt>
      <trkpt lat="59.4876061" lon="17.8707341">
        <ele>22.2476</ele>
        <time>2011-01-21T20:58:16Z</time>
      </trkpt>
      <trkpt lat="59.4877891" lon="17.870752">
        <ele>20.8057</ele>
        <time>2011-01-21T20:58:21Z</time>
      </trkpt>
      <trkpt lat="59.4878745" lon="17.8709215">
        <ele>20.8057</ele>
        <time>2011-01-21T20:58:24Z</time>
      </trkpt>
      <trkpt lat="59.4879538" lon="17.8712385">
        <ele>20.8057</ele>
        <time>2011-01-21T20:58:28Z</time>
      </trkpt>
      <trkpt lat="59.4880268" lon="17.8717046">
        <ele>20.8057</ele>
        <time>2011-01-21T20:58:34Z</time>
      </trkpt>
      <trkpt lat="59.4880732" lon="17.8720395">
        <ele>20.325</ele>
        <time>2011-01-21T20:58:38Z</time>
      </trkpt>
      <trkpt lat="59.4880864" lon="17.8721212">
        <ele>19.8444</ele>
        <time>2011-01-21T20:58:39Z</time>
      </trkpt>
      <trkpt lat="59.4881951" lon="17.8726609">
        <ele>19.3638</ele>
        <time>2011-01-21T20:58:45Z</time>
      </trkpt>
      <trkpt lat="59.4882157" lon="17.8728686">
        <ele>19.3638</ele>
        <time>2011-01-21T20:58:47Z</time>
      </trkpt>
      <trkpt lat="59.4882636" lon="17.8732573">
        <ele>18.8831</ele>
        <time>2011-01-21T20:58:51Z</time>
      </trkpt>
      <trkpt lat="59.4882965" lon="17.8734283">
        <ele>18.4023</ele>
        <time>2011-01-21T20:58:53Z</time>
      </trkpt>
      <trkpt lat="59.4883999" lon="17.8735981">
        <ele>17.4412</ele>
        <time>2011-01-21T20:58:57Z</time>
      </trkpt>
      <trkpt lat="59.4886208" lon="17.8736728">
        <ele>15.999</ele>
        <time>2011-01-21T20:59:02Z</time>
      </trkpt>
      <trkpt lat="59.4887691" lon="17.8737686">
        <ele>15.0377</ele>
        <time>2011-01-21T20:59:07Z</time>
      </trkpt>
      <trkpt lat="59.4888879" lon="17.8738551">
        <ele>15.0377</ele>
        <time>2011-01-21T20:59:11Z</time>
      </trkpt>
      <trkpt lat="59.4890286" lon="17.8740416">
        <ele>14.557</ele>
        <time>2011-01-21T20:59:15Z</time>
      </trkpt>
      <trkpt lat="59.4891059" lon="17.8742814">
        <ele>14.557</ele>
        <time>2011-01-21T20:59:18Z</time>
      </trkpt>
      <trkpt lat="59.4891417" lon="17.874616">
        <ele>15.0377</ele>
        <time>2011-01-21T20:59:21Z</time>
      </trkpt>
      <trkpt lat="59.4891493" lon="17.8751632">
        <ele>15.0377</ele>
        <time>2011-01-21T20:59:26Z</time>
      </trkpt>
      <trkpt lat="59.4891452" lon="17.8754314">
        <ele>14.0764</ele>
        <time>2011-01-21T20:59:29Z</time>
      </trkpt>
      <trkpt lat="59.4891416" lon="17.8756039">
        <ele>13.5958</ele>
        <time>2011-01-21T20:59:31Z</time>
      </trkpt>
      <trkpt lat="59.4890803" lon="17.8760497">
        <ele>12.1538</ele>
        <time>2011-01-21T20:59:37Z</time>
      </trkpt>
      <trkpt lat="59.4890414" lon="17.8761721">
        <ele>11.1925</ele>
        <time>2011-01-21T20:59:39Z</time>
      </trkpt>
      <trkpt lat="59.488895" lon="17.8764423">
        <ele>10.2312</ele>
        <time>2011-01-21T20:59:44Z</time>
      </trkpt>
      <trkpt lat="59.4887831" lon="17.8765927">
        <ele>8.78918</ele>
        <time>2011-01-21T20:59:48Z</time>
      </trkpt>
      <trkpt lat="59.4886817" lon="17.8766788">
        <ele>8.78918</ele>
        <time>2011-01-21T20:59:51Z</time>
      </trkpt>
      <trkpt lat="59.4885412" lon="17.8767285">
        <ele>9.75061</ele>
        <time>2011-01-21T20:59:55Z</time>
      </trkpt>
      <trkpt lat="59.4884448" lon="17.8767363">
        <ele>10.2312</ele>
        <time>2011-01-21T20:59:58Z</time>
      </trkpt>
      <trkpt lat="59.4883366" lon="17.8766491">
        <ele>10.7118</ele>
        <time>2011-01-21T21:00:02Z</time>
      </trkpt>
      <trkpt lat="59.488269" lon="17.876547">
        <ele>11.6732</ele>
        <time>2011-01-21T21:00:05Z</time>
      </trkpt>
      <trkpt lat="59.4882476" lon="17.8764983">
        <ele>11.6732</ele>
        <time>2011-01-21T21:00:06Z</time>
      </trkpt>
      <trkpt lat="59.4881655" lon="17.876303">
        <ele>12.1538</ele>
        <time>2011-01-21T21:00:10Z</time>
      </trkpt>
      <trkpt lat="59.4880864" lon="17.876127">
        <ele>12.6344</ele>
        <time>2011-01-21T21:00:14Z</time>
      </trkpt>
      <trkpt lat="59.4879624" lon="17.8758747">
        <ele>12.1538</ele>
        <time>2011-01-21T21:00:19Z</time>
      </trkpt>
      <trkpt lat="59.487856" lon="17.87569">
        <ele>11.1925</ele>
        <time>2011-01-21T21:00:23Z</time>
      </trkpt>
      <trkpt lat="59.4877268" lon="17.8754713">
        <ele>11.6732</ele>
        <time>2011-01-21T21:00:28Z</time>
      </trkpt>
      <trkpt lat="59.4876305" lon="17.875325">
        <ele>11.6732</ele>
        <time>2011-01-21T21:00:33Z</time>
      </trkpt>
      <trkpt lat="59.4875148" lon="17.8751829">
        <ele>11.1925</ele>
        <time>2011-01-21T21:00:38Z</time>
      </trkpt>
      <trkpt lat="59.487413" lon="17.8750635">
        <ele>11.1925</ele>
        <time>2011-01-21T21:00:42Z</time>
      </trkpt>
      <trkpt lat="59.4873138" lon="17.8749512">
        <ele>12.1538</ele>
        <time>2011-01-21T21:00:46Z</time>
      </trkpt>
      <trkpt lat="59.4872341" lon="17.8748734">
        <ele>13.1151</ele>
        <time>2011-01-21T21:00:49Z</time>
      </trkpt>
      <trkpt lat="59.4871258" lon="17.8748213">
        <ele>14.0764</ele>
        <time>2011-01-21T21:00:53Z</time>
      </trkpt>
      <trkpt lat="59.4869721" lon="17.8748015">
        <ele>15.0377</ele>
        <time>2011-01-21T21:00:58Z</time>
      </trkpt>
      <trkpt lat="59.4868078" lon="17.8748464">
        <ele>14.0764</ele>
        <time>2011-01-21T21:01:03Z</time>
      </trkpt>
      <trkpt lat="59.4866989" lon="17.8749174">
        <ele>13.1151</ele>
        <time>2011-01-21T21:01:07Z</time>
      </trkpt>
      <trkpt lat="59.4865751" lon="17.8750186">
        <ele>12.6344</ele>
        <time>2011-01-21T21:01:11Z</time>
      </trkpt>
      <trkpt lat="59.4864693" lon="17.8750486">
        <ele>12.6344</ele>
        <time>2011-01-21T21:01:15Z</time>
      </trkpt>
      <trkpt lat="59.4862992" lon="17.8750393">
        <ele>11.6732</ele>
        <time>2011-01-21T21:01:20Z</time>
      </trkpt>
      <trkpt lat="59.4862226" lon="17.8750131">
        <ele>10.7118</ele>
        <time>2011-01-21T21:01:23Z</time>
      </trkpt>
      <trkpt lat="59.4860895" lon="17.8749953">
        <ele>10.2312</ele>
        <time>2011-01-21T21:01:28Z</time>
      </trkpt>
      <trkpt lat="59.4859346" lon="17.8750362">
        <ele>11.1925</ele>
        <time>2011-01-21T21:01:33Z</time>
      </trkpt>
      <trkpt lat="59.4857997" lon="17.8751077">
        <ele>12.1538</ele>
        <time>2011-01-21T21:01:37Z</time>
      </trkpt>
      <trkpt lat="59.4856844" lon="17.8752424">
        <ele>13.1151</ele>
        <time>2011-01-21T21:01:41Z</time>
      </trkpt>
      <trkpt lat="59.485589" lon="17.8753853">
        <ele>15.0377</ele>
        <time>2011-01-21T21:01:45Z</time>
      </trkpt>
      <trkpt lat="59.485491" lon="17.8755768">
        <ele>15.5184</ele>
        <time>2011-01-21T21:01:49Z</time>
      </trkpt>
      <trkpt lat="59.485416" lon="17.8757355">
        <ele>16.9604</ele>
        <time>2011-01-21T21:01:53Z</time>
      </trkpt>
      <trkpt lat="59.4853405" lon="17.8759143">
        <ele>17.4412</ele>
        <time>2011-01-21T21:01:57Z</time>
      </trkpt>
      <trkpt lat="59.4852715" lon="17.8761148">
        <ele>17.9218</ele>
        <time>2011-01-21T21:02:01Z</time>
      </trkpt>
      <trkpt lat="59.4852333" lon="17.8763263">
        <ele>18.4023</ele>
        <time>2011-01-21T21:02:05Z</time>
      </trkpt>
    </trkseg>
  </trk>
</gpx>